<?xml version='1.0' encoding='UTF-8'?><gpx version="1.1" creator="JPX - https://github.com/jenetics/jpx" xmlns="http://www.topografix.com/GPX/1/1"><trk><trkseg><trkpt lat="43.184105784975685" lon="12.146342576568605"><ele>258.0</ele><time>2026-04-30T11:52:13.999Z</time></trkpt><trkpt lat="43.18420906587606" lon="12.14626804643953"><ele>258.0</ele><time>2026-04-30T11:52:15.999Z</time></trkpt><trkpt lat="43.18425269461251" lon="12.146164797581553"><ele>258.0</ele><time>2026-04-30T11:52:16.999Z</time></trkpt><trkpt lat="43.184278972553955" lon="12.14603321549388"><ele>258.0</ele><time>2026-04-30T11:52:17.999Z</time></trkpt><trkpt lat="43.18430726265928" lon="12.14587215690743"><ele>258.0</ele><time>2026-04-30T11:52:18.999Z</time></trkpt><trkpt lat="43.184341434209095" lon="12.145656518547833"><ele>257.3333333333333</ele><time>2026-04-30T11:52:19.999Z</time></trkpt><trkpt lat="43.18438223848439" lon="12.145421574141958"><ele>256.66666666666663</ele><time>2026-04-30T11:52:20.999Z</time></trkpt><trkpt lat="43.184418712285144" lon="12.145207646978639"><ele>256.0</ele><time>2026-04-30T11:52:21.999Z</time></trkpt><trkpt lat="43.184450205312245" lon="12.145026956372453"><ele>255.60000000000002</ele><time>2026-04-30T11:52:22.999Z</time></trkpt><trkpt lat="43.184474881581664" lon="12.144862464872036"><ele>255.20000000000002</ele><time>2026-04-30T11:52:23.999Z</time></trkpt><trkpt lat="43.18450481941337" lon="12.144710371683274"><ele>254.79999999999998</ele><time>2026-04-30T11:52:24.999Z</time></trkpt><trkpt lat="43.184529227785774" lon="12.144581036947661"><ele>254.39999999999998</ele><time>2026-04-30T11:52:25.999Z</time></trkpt><trkpt lat="43.18456120006892" lon="12.1444593245192"><ele>254.0</ele><time>2026-04-30T11:52:26.999Z</time></trkpt><trkpt lat="43.184609220926525" lon="12.144355247492594"><ele>254.0</ele><time>2026-04-30T11:52:27.999Z</time></trkpt><trkpt lat="43.18466285331112" lon="12.144291862341435"><ele>253.99999999999997</ele><time>2026-04-30T11:52:28.999Z</time></trkpt><trkpt lat="43.184693781631935" lon="12.144179004984741"><ele>253.99999999999997</ele><time>2026-04-30T11:52:30.999Z</time></trkpt><trkpt lat="43.18486797181639" lon="12.14434656290382"><ele>254.0</ele><time>2026-04-30T11:52:31.999Z</time></trkpt><trkpt lat="43.18494105638134" lon="12.144335909784827"><ele>254.0</ele><time>2026-04-30T11:52:32.999Z</time></trkpt><trkpt lat="43.185020145920774" lon="12.144362605808785"><ele>256.0</ele><time>2026-04-30T11:52:34.999Z</time></trkpt><trkpt lat="43.18501471260993" lon="12.144570288018633"><ele>258.0</ele><time>2026-04-30T11:52:37.999Z</time></trkpt><trkpt lat="43.18499639615966" lon="12.144732731488261"><ele>260.0</ele><time>2026-04-30T11:52:38.999Z</time></trkpt><trkpt lat="43.18498809186381" lon="12.144933451640052"><ele>262.0</ele><time>2026-04-30T11:52:39.999Z</time></trkpt><trkpt lat="43.184958759994615" lon="12.145143617138993"><ele>262.3333333333333</ele><time>2026-04-30T11:52:40.999Z</time></trkpt><trkpt lat="43.18491265361937" lon="12.145380596630712"><ele>262.6666666666667</ele><time>2026-04-30T11:52:41.999Z</time></trkpt><trkpt lat="43.18487432697575" lon="12.14562920551283"><ele>263.0</ele><time>2026-04-30T11:52:42.999Z</time></trkpt><trkpt lat="43.184826613599455" lon="12.145908767426693"><ele>261.6666666666667</ele><time>2026-04-30T11:52:43.999Z</time></trkpt><trkpt lat="43.18476319885188" lon="12.146194154558975"><ele>260.3333333333333</ele><time>2026-04-30T11:52:44.999Z</time></trkpt><trkpt lat="43.18469557894153" lon="12.14647823952499"><ele>259.0</ele><time>2026-04-30T11:52:45.999Z</time></trkpt><trkpt lat="43.18462752001873" lon="12.14676398787098"><ele>259.0</ele><time>2026-04-30T11:52:46.999Z</time></trkpt><trkpt lat="43.18455838951802" lon="12.147052922188935"><ele>259.0</ele><time>2026-04-30T11:52:47.999Z</time></trkpt><trkpt lat="43.18450423612758" lon="12.147330478898951"><ele>259.0</ele><time>2026-04-30T11:52:48.999Z</time></trkpt><trkpt lat="43.1844327003511" lon="12.14759678289347"><ele>259.0</ele><time>2026-04-30T11:52:49.999Z</time></trkpt><trkpt lat="43.18436088765781" lon="12.147861961886633"><ele>259.0</ele><time>2026-04-30T11:52:50.999Z</time></trkpt><trkpt lat="43.18428413251882" lon="12.14813642731062"><ele>259.0</ele><time>2026-04-30T11:52:51.999Z</time></trkpt><trkpt lat="43.184213537604776" lon="12.14840736666392"><ele>259.0</ele><time>2026-04-30T11:52:52.999Z</time></trkpt><trkpt lat="43.18413583281227" lon="12.14867853027775"><ele>259.0</ele><time>2026-04-30T11:52:53.999Z</time></trkpt><trkpt lat="43.184048655693324" lon="12.148955899041196"><ele>259.0</ele><time>2026-04-30T11:52:54.999Z</time></trkpt><trkpt lat="43.18396949241147" lon="12.14922156097284"><ele>259.0</ele><time>2026-04-30T11:52:55.999Z</time></trkpt><trkpt lat="43.18389989743508" lon="12.149454895201586"><ele>259.0</ele><time>2026-04-30T11:52:56.999Z</time></trkpt><trkpt lat="43.18384097238478" lon="12.149667367310448"><ele>259.0</ele><time>2026-04-30T11:52:58Z</time></trkpt><trkpt lat="43.1837872673041" lon="12.149880955540572"><ele>261.0</ele><time>2026-04-30T11:52:59Z</time></trkpt><trkpt lat="43.183748851600285" lon="12.150105941083362"><ele>263.0</ele><time>2026-04-30T11:53:00Z</time></trkpt><trkpt lat="43.18373238448792" lon="12.150346204555365"><ele>265.0</ele><time>2026-04-30T11:53:01Z</time></trkpt><trkpt lat="43.18372945414929" lon="12.150576334899354"><ele>264.75</ele><time>2026-04-30T11:53:02Z</time></trkpt><trkpt lat="43.18374663707623" lon="12.150773319045276"><ele>264.5</ele><time>2026-04-30T11:53:03Z</time></trkpt><trkpt lat="43.18377666537628" lon="12.15095936791221"><ele>264.25</ele><time>2026-04-30T11:53:04Z</time></trkpt><trkpt lat="43.183798972450056" lon="12.151114174966825"><ele>264.0</ele><time>2026-04-30T11:53:05Z</time></trkpt><trkpt lat="43.183806207824155" lon="12.151250062590563"><ele>264.0</ele><time>2026-04-30T11:53:06Z</time></trkpt><trkpt lat="43.18383719708731" lon="12.151362244840065"><ele>264.0</ele><time>2026-04-30T11:53:07Z</time></trkpt><trkpt lat="43.18386731502777" lon="12.15147509096332"><ele>264.0</ele><time>2026-04-30T11:53:08Z</time></trkpt><trkpt lat="43.183899793725985" lon="12.151596782346239"><ele>264.0</ele><time>2026-04-30T11:53:09Z</time></trkpt><trkpt lat="43.18392202557773" lon="12.151680080733462"><ele>264.0</ele><time>2026-04-30T11:53:10Z</time></trkpt><trkpt lat="43.18392876868148" lon="12.151878323817396"><ele>263.2</ele><time>2026-04-30T11:53:11Z</time></trkpt><trkpt lat="43.18384177569533" lon="12.151966273615187"><ele>262.4</ele><time>2026-04-30T11:53:12Z</time></trkpt><trkpt lat="43.18388696115494" lon="12.1520567196434"><ele>261.6</ele><time>2026-04-30T11:53:13Z</time></trkpt><trkpt lat="43.18392287192213" lon="12.152135381326232"><ele>260.8</ele><time>2026-04-30T11:53:14Z</time></trkpt><trkpt lat="43.18391793208255" lon="12.15232479541367"><ele>260.0</ele><time>2026-04-30T11:53:16Z</time></trkpt><trkpt lat="43.183869841791505" lon="12.152446805538853"><ele>259.75</ele><time>2026-04-30T11:53:17Z</time></trkpt><trkpt lat="43.183853721706335" lon="12.152611573407949"><ele>259.5</ele><time>2026-04-30T11:53:18Z</time></trkpt><trkpt lat="43.183829035690366" lon="12.152779915397671"><ele>259.25</ele><time>2026-04-30T11:53:19Z</time></trkpt><trkpt lat="43.18380695595147" lon="12.152957914713111"><ele>259.0</ele><time>2026-04-30T11:53:20Z</time></trkpt><trkpt lat="43.18378020718222" lon="12.15314177251109"><ele>258.3333333333333</ele><time>2026-04-30T11:53:21Z</time></trkpt><trkpt lat="43.18374897968955" lon="12.153353779404556"><ele>257.6666666666667</ele><time>2026-04-30T11:53:22Z</time></trkpt><trkpt lat="43.18372141413761" lon="12.153574474076526"><ele>257.0</ele><time>2026-04-30T11:53:23Z</time></trkpt><trkpt lat="43.183670900236336" lon="12.153794165965211"><ele>257.0</ele><time>2026-04-30T11:53:24Z</time></trkpt><trkpt lat="43.183633907945826" lon="12.154019550614072"><ele>257.0</ele><time>2026-04-30T11:53:25Z</time></trkpt><trkpt lat="43.18360825972716" lon="12.154248880534219"><ele>257.0</ele><time>2026-04-30T11:53:26Z</time></trkpt><trkpt lat="43.18357077362308" lon="12.15447436017908"><ele>257.6666666666667</ele><time>2026-04-30T11:53:27Z</time></trkpt><trkpt lat="43.18353999774389" lon="12.154712178599"><ele>258.3333333333333</ele><time>2026-04-30T11:53:28Z</time></trkpt><trkpt lat="43.18350561599075" lon="12.154966429353943"><ele>259.0</ele><time>2026-04-30T11:53:29Z</time></trkpt><trkpt lat="43.183466089419866" lon="12.155222535305906"><ele>259.0</ele><time>2026-04-30T11:53:30Z</time></trkpt><trkpt lat="43.18343320643943" lon="12.155468104773673"><ele>259.0</ele><time>2026-04-30T11:53:31Z</time></trkpt><trkpt lat="43.183405024973304" lon="12.15568388359291"><ele>259.0</ele><time>2026-04-30T11:53:32Z</time></trkpt><trkpt lat="43.18337789567868" lon="12.155898547680406"><ele>259.0</ele><time>2026-04-30T11:53:33Z</time></trkpt><trkpt lat="43.1833401577892" lon="12.15611873072723"><ele>259.0</ele><time>2026-04-30T11:53:34Z</time></trkpt><trkpt lat="43.183306361584506" lon="12.156340719970123"><ele>259.0</ele><time>2026-04-30T11:53:35Z</time></trkpt><trkpt lat="43.1832764768991" lon="12.15656793415076"><ele>259.0</ele><time>2026-04-30T11:53:36Z</time></trkpt><trkpt lat="43.18324090704795" lon="12.156805641047939"><ele>259.0</ele><time>2026-04-30T11:53:37Z</time></trkpt><trkpt lat="43.18320983194813" lon="12.157030398141766"><ele>259.0</ele><time>2026-04-30T11:53:38Z</time></trkpt><trkpt lat="43.18318817098395" lon="12.157222697092902"><ele>258.25</ele><time>2026-04-30T11:53:39Z</time></trkpt><trkpt lat="43.183158138863334" lon="12.15740497954418"><ele>257.5</ele><time>2026-04-30T11:53:40Z</time></trkpt><trkpt lat="43.183131440919816" lon="12.157571627606842"><ele>256.75</ele><time>2026-04-30T11:53:41Z</time></trkpt><trkpt lat="43.1831078278655" lon="12.157737351136573"><ele>256.0</ele><time>2026-04-30T11:53:42Z</time></trkpt><trkpt lat="43.18308646357427" lon="12.15789643643803"><ele>256.0</ele><time>2026-04-30T11:53:43Z</time></trkpt><trkpt lat="43.183069003577" lon="12.158036454256598"><ele>256.0</ele><time>2026-04-30T11:53:44Z</time></trkpt><trkpt lat="43.183049640279236" lon="12.158166161779903"><ele>256.0</ele><time>2026-04-30T11:53:45Z</time></trkpt><trkpt lat="43.183029888259874" lon="12.15829754144863"><ele>256.0</ele><time>2026-04-30T11:53:46Z</time></trkpt><trkpt lat="43.18301878191416" lon="12.158441611434505"><ele>256.0</ele><time>2026-04-30T11:53:47Z</time></trkpt><trkpt lat="43.18299981268945" lon="12.158598117021116"><ele>257.0</ele><time>2026-04-30T11:53:48Z</time></trkpt><trkpt lat="43.18295677350087" lon="12.158784602814107"><ele>258.0</ele><time>2026-04-30T11:53:49Z</time></trkpt><trkpt lat="43.18294165082526" lon="12.159014252403592"><ele>259.0</ele><time>2026-04-30T11:53:50Z</time></trkpt><trkpt lat="43.182901511609586" lon="12.159272965029027"><ele>259.25</ele><time>2026-04-30T11:53:51Z</time></trkpt><trkpt lat="43.182869550646345" lon="12.159470889196827"><ele>259.5</ele><time>2026-04-30T11:53:52Z</time></trkpt><trkpt lat="43.18284673564661" lon="12.159655279474077"><ele>259.75</ele><time>2026-04-30T11:53:53Z</time></trkpt><trkpt lat="43.18282481579447" lon="12.159820799209545"><ele>260.0</ele><time>2026-04-30T11:53:54Z</time></trkpt><trkpt lat="43.18280406159087" lon="12.159976491150246"><ele>260.0</ele><time>2026-04-30T11:53:55Z</time></trkpt><trkpt lat="43.18278966313425" lon="12.160090037715387"><ele>260.0</ele><time>2026-04-30T11:53:56Z</time></trkpt><trkpt lat="43.182776712986545" lon="12.160185966623075"><ele>260.0</ele><time>2026-04-30T11:53:56.999Z</time></trkpt><trkpt lat="43.18274808414696" lon="12.160273270373434"><ele>260.0</ele><time>2026-04-30T11:53:57.999Z</time></trkpt><trkpt lat="43.182675747127185" lon="12.160319936859475"><ele>260.0</ele><time>2026-04-30T11:53:58.999Z</time></trkpt><trkpt lat="43.1826038992765" lon="12.16033071618837"><ele>260.0</ele><time>2026-04-30T11:53:59.999Z</time></trkpt><trkpt lat="43.18254021579207" lon="12.160399637465275"><ele>260.0</ele><time>2026-04-30T11:54:00.999Z</time></trkpt><trkpt lat="43.182491472834876" lon="12.160490675830658"><ele>260.0</ele><time>2026-04-30T11:54:01.999Z</time></trkpt><trkpt lat="43.18244459157644" lon="12.160623173809174"><ele>260.0</ele><time>2026-04-30T11:54:02.999Z</time></trkpt><trkpt lat="43.182424128137804" lon="12.160771192522112"><ele>260.0</ele><time>2026-04-30T11:54:03.999Z</time></trkpt><trkpt lat="43.18245742176373" lon="12.160939914244114"><ele>260.0</ele><time>2026-04-30T11:54:04.999Z</time></trkpt><trkpt lat="43.18251430642873" lon="12.161109459193113"><ele>260.0</ele><time>2026-04-30T11:54:05.999Z</time></trkpt><trkpt lat="43.18258833892235" lon="12.16127003818873"><ele>260.0</ele><time>2026-04-30T11:54:06.999Z</time></trkpt><trkpt lat="43.182610431859864" lon="12.161441812886512"><ele>260.0</ele><time>2026-04-30T11:54:07.999Z</time></trkpt><trkpt lat="43.18259033865505" lon="12.161621108165816"><ele>260.0</ele><time>2026-04-30T11:54:08.999Z</time></trkpt><trkpt lat="43.18256159665978" lon="12.161771437729872"><ele>260.5</ele><time>2026-04-30T11:54:09.999Z</time></trkpt><trkpt lat="43.18252860309303" lon="12.161892182702404"><ele>261.0</ele><time>2026-04-30T11:54:10.999Z</time></trkpt><trkpt lat="43.18251269225842" lon="12.162053931402468"><ele>261.5</ele><time>2026-04-30T11:54:11.999Z</time></trkpt><trkpt lat="43.182489055447775" lon="12.16224449980254"><ele>262.0</ele><time>2026-04-30T11:54:12.999Z</time></trkpt><trkpt lat="43.182447114770355" lon="12.162447808217511"><ele>262.0</ele><time>2026-04-30T11:54:13.999Z</time></trkpt><trkpt lat="43.18241118526372" lon="12.162690055592158"><ele>262.0</ele><time>2026-04-30T11:54:14.999Z</time></trkpt><trkpt lat="43.18236834145037" lon="12.162966853518375"><ele>262.0</ele><time>2026-04-30T11:54:15.999Z</time></trkpt><trkpt lat="43.182333023701226" lon="12.16324628399521"><ele>262.3333333333333</ele><time>2026-04-30T11:54:16.999Z</time></trkpt><trkpt lat="43.18229512617079" lon="12.163541480651975"><ele>262.6666666666667</ele><time>2026-04-30T11:54:17.999Z</time></trkpt><trkpt lat="43.18225613636207" lon="12.16382645690373"><ele>263.0</ele><time>2026-04-30T11:54:18.999Z</time></trkpt><trkpt lat="43.182214674455395" lon="12.164096083351119"><ele>263.0</ele><time>2026-04-30T11:54:19.999Z</time></trkpt><trkpt lat="43.182179653806635" lon="12.164329126100965"><ele>263.0</ele><time>2026-04-30T11:54:20.999Z</time></trkpt><trkpt lat="43.18215000613023" lon="12.16453906870848"><ele>263.0</ele><time>2026-04-30T11:54:21.999Z</time></trkpt><trkpt lat="43.18212220751491" lon="12.164722848864347"><ele>263.25</ele><time>2026-04-30T11:54:22.999Z</time></trkpt><trkpt lat="43.18210353132427" lon="12.16488778288328"><ele>263.5</ele><time>2026-04-30T11:54:23.999Z</time></trkpt><trkpt lat="43.18209169761872" lon="12.165035588557075"><ele>263.75</ele><time>2026-04-30T11:54:24.999Z</time></trkpt><trkpt lat="43.18206806018514" lon="12.16518196039346"><ele>264.0</ele><time>2026-04-30T11:54:25.999Z</time></trkpt><trkpt lat="43.18201981740201" lon="12.165318246698902"><ele>264.0</ele><time>2026-04-30T11:54:26.999Z</time></trkpt><trkpt lat="43.181954761958494" lon="12.165450114381175"><ele>264.0</ele><time>2026-04-30T11:54:27.999Z</time></trkpt><trkpt lat="43.18187837411586" lon="12.165604852047302"><ele>264.0</ele><time>2026-04-30T11:54:28.999Z</time></trkpt><trkpt lat="43.18174698207432" lon="12.165711140576601"><ele>264.0</ele><time>2026-04-30T11:54:29.999Z</time></trkpt><trkpt lat="43.18164074938681" lon="12.165876246603103"><ele>263.25</ele><time>2026-04-30T11:54:30.999Z</time></trkpt><trkpt lat="43.18152949785518" lon="12.166001480251008"><ele>262.5</ele><time>2026-04-30T11:54:31.999Z</time></trkpt><trkpt lat="43.18144511122261" lon="12.166117088685784"><ele>261.75</ele><time>2026-04-30T11:54:32.999Z</time></trkpt><trkpt lat="43.181384460149026" lon="12.16622726362185"><ele>261.0</ele><time>2026-04-30T11:54:33.999Z</time></trkpt><trkpt lat="43.18133789477222" lon="12.166365796495139"><ele>260.40000000000003</ele><time>2026-04-30T11:54:34.999Z</time></trkpt><trkpt lat="43.181303186259846" lon="12.166527638802348"><ele>259.8</ele><time>2026-04-30T11:54:35.999Z</time></trkpt><trkpt lat="43.181283459290945" lon="12.166672996312826"><ele>259.20000000000005</ele><time>2026-04-30T11:54:36.999Z</time></trkpt><trkpt lat="43.181275445185655" lon="12.166797526836515"><ele>258.6</ele><time>2026-04-30T11:54:37.999Z</time></trkpt><trkpt lat="43.1812776632812" lon="12.166885389972713"><ele>258.0</ele><time>2026-04-30T11:54:38.999Z</time></trkpt><trkpt lat="43.181365090716255" lon="12.16699004918804"><ele>258.0</ele><time>2026-04-30T11:54:40.999Z</time></trkpt><trkpt lat="43.18149677502562" lon="12.167006039000357"><ele>258.0</ele><time>2026-04-30T11:54:41.999Z</time></trkpt><trkpt lat="43.18160727588218" lon="12.167058453801792"><ele>258.0</ele><time>2026-04-30T11:54:42.999Z</time></trkpt><trkpt lat="43.18168051038828" lon="12.167092182862747"><ele>258.0</ele><time>2026-04-30T11:54:43.999Z</time></trkpt><trkpt lat="43.18177190670974" lon="12.167172023028408"><ele>258.0</ele><time>2026-04-30T11:54:45.999Z</time></trkpt><trkpt lat="43.18177872828545" lon="12.16727366444754"><ele>258.8</ele><time>2026-04-30T11:54:46.999Z</time></trkpt><trkpt lat="43.181744249987695" lon="12.16741934151795"><ele>259.6</ele><time>2026-04-30T11:54:47.999Z</time></trkpt><trkpt lat="43.18171040289656" lon="12.167589071102116"><ele>260.4</ele><time>2026-04-30T11:54:48.999Z</time></trkpt><trkpt lat="43.18168007626828" lon="12.167749797017867"><ele>261.2</ele><time>2026-04-30T11:54:49.999Z</time></trkpt><trkpt lat="43.1816703414857" lon="12.167859117194558"><ele>262.0</ele><time>2026-04-30T11:54:50.999Z</time></trkpt><trkpt lat="43.18158853934775" lon="12.167955589243038"><ele>261.8</ele><time>2026-04-30T11:54:52.999Z</time></trkpt><trkpt lat="43.18149944173846" lon="12.167945595214865"><ele>261.6</ele><time>2026-04-30T11:54:53.999Z</time></trkpt><trkpt lat="43.18145836683713" lon="12.168141333276376"><ele>261.40000000000003</ele><time>2026-04-30T11:54:55.999Z</time></trkpt><trkpt lat="43.1814345726181" lon="12.168226850251266"><ele>261.2</ele><time>2026-04-30T11:54:56.999Z</time></trkpt><trkpt lat="43.181394035457785" lon="12.168331534741535"><ele>261.0</ele><time>2026-04-30T11:54:58.999Z</time></trkpt><trkpt lat="43.181309659888434" lon="12.168341758325607"><ele>261.0</ele><time>2026-04-30T11:55:00.999Z</time></trkpt><trkpt lat="43.18122454827808" lon="12.16845449722357"><ele>261.0</ele><time>2026-04-30T11:55:02.999Z</time></trkpt><trkpt lat="43.181241260403006" lon="12.168608724321112"><ele>261.0</ele><time>2026-04-30T11:55:04Z</time></trkpt><trkpt lat="43.18125867629886" lon="12.168775182163845"><ele>261.0</ele><time>2026-04-30T11:55:05Z</time></trkpt><trkpt lat="43.18128839604718" lon="12.168973001013152"><ele>260.5</ele><time>2026-04-30T11:55:06Z</time></trkpt><trkpt lat="43.18132541079467" lon="12.169184792505549"><ele>260.0</ele><time>2026-04-30T11:55:07Z</time></trkpt><trkpt lat="43.181358102719344" lon="12.169371839474032"><ele>259.5</ele><time>2026-04-30T11:55:08Z</time></trkpt><trkpt lat="43.18137916694082" lon="12.169536148546127"><ele>259.0</ele><time>2026-04-30T11:55:09Z</time></trkpt><trkpt lat="43.18138194332212" lon="12.169707267228437"><ele>258.66666666666663</ele><time>2026-04-30T11:55:10Z</time></trkpt><trkpt lat="43.181359910135285" lon="12.16990875259775"><ele>258.3333333333333</ele><time>2026-04-30T11:55:11Z</time></trkpt><trkpt lat="43.18132479280373" lon="12.170148562248718"><ele>258.0</ele><time>2026-04-30T11:55:12Z</time></trkpt><trkpt lat="43.18130013291266" lon="12.170391054113301"><ele>258.0</ele><time>2026-04-30T11:55:13Z</time></trkpt><trkpt lat="43.1812655403453" lon="12.170632909622453"><ele>258.0</ele><time>2026-04-30T11:55:14Z</time></trkpt><trkpt lat="43.18122063689151" lon="12.17088504084702"><ele>258.0</ele><time>2026-04-30T11:55:15Z</time></trkpt><trkpt lat="43.18117981306218" lon="12.17114106331658"><ele>258.3333333333333</ele><time>2026-04-30T11:55:16Z</time></trkpt><trkpt lat="43.18114190092727" lon="12.171408411169644"><ele>258.66666666666663</ele><time>2026-04-30T11:55:17Z</time></trkpt><trkpt lat="43.18110805894979" lon="12.171691180927448"><ele>259.0</ele><time>2026-04-30T11:55:18Z</time></trkpt><trkpt lat="43.181066192589405" lon="12.17199477869053"><ele>259.0</ele><time>2026-04-30T11:55:19Z</time></trkpt><trkpt lat="43.1810191884353" lon="12.172307888118933"><ele>259.0</ele><time>2026-04-30T11:55:20Z</time></trkpt><trkpt lat="43.18097813508123" lon="12.172581357716814"><ele>259.0</ele><time>2026-04-30T11:55:21Z</time></trkpt><trkpt lat="43.18093864277915" lon="12.17283725219883"><ele>259.0</ele><time>2026-04-30T11:55:22Z</time></trkpt><trkpt lat="43.18089510725043" lon="12.1731184517595"><ele>259.0</ele><time>2026-04-30T11:55:23Z</time></trkpt><trkpt lat="43.18084958220632" lon="12.173423929318222"><ele>259.0</ele><time>2026-04-30T11:55:24Z</time></trkpt><trkpt lat="43.180814924378694" lon="12.173713089302588"><ele>259.0</ele><time>2026-04-30T11:55:25Z</time></trkpt><trkpt lat="43.18078181228172" lon="12.17397146214026"><ele>259.0</ele><time>2026-04-30T11:55:26Z</time></trkpt><trkpt lat="43.18074759731297" lon="12.174226179263878"><ele>259.0</ele><time>2026-04-30T11:55:27Z</time></trkpt><trkpt lat="43.180712292266676" lon="12.17445838931478"><ele>258.3333333333333</ele><time>2026-04-30T11:55:28Z</time></trkpt><trkpt lat="43.18067908233759" lon="12.174671462444545"><ele>257.6666666666667</ele><time>2026-04-30T11:55:29Z</time></trkpt><trkpt lat="43.18064941573727" lon="12.174882333810345"><ele>257.0</ele><time>2026-04-30T11:55:30Z</time></trkpt><trkpt lat="43.180619593553374" lon="12.17510016815589"><ele>257.0</ele><time>2026-04-30T11:55:31Z</time></trkpt><trkpt lat="43.1805867733277" lon="12.175315475352495"><ele>257.0</ele><time>2026-04-30T11:55:32Z</time></trkpt><trkpt lat="43.18054835070223" lon="12.175524225482853"><ele>257.0</ele><time>2026-04-30T11:55:33Z</time></trkpt><trkpt lat="43.18050554341209" lon="12.175733551443399"><ele>257.0</ele><time>2026-04-30T11:55:34Z</time></trkpt><trkpt lat="43.18046119683476" lon="12.175932995682016"><ele>257.0</ele><time>2026-04-30T11:55:35Z</time></trkpt><trkpt lat="43.18041800578339" lon="12.176119677786472"><ele>257.0</ele><time>2026-04-30T11:55:36Z</time></trkpt><trkpt lat="43.18037532898433" lon="12.176304137135842"><ele>257.0</ele><time>2026-04-30T11:55:37Z</time></trkpt><trkpt lat="43.18032752884905" lon="12.176495708605007"><ele>257.33333333333337</ele><time>2026-04-30T11:55:38Z</time></trkpt><trkpt lat="43.18027527557048" lon="12.17668431006015"><ele>257.6666666666667</ele><time>2026-04-30T11:55:39Z</time></trkpt><trkpt lat="43.18021655434994" lon="12.176883788289533"><ele>258.0</ele><time>2026-04-30T11:55:40Z</time></trkpt><trkpt lat="43.18015468651786" lon="12.17708719843894"><ele>258.0</ele><time>2026-04-30T11:55:41Z</time></trkpt><trkpt lat="43.18008195462798" lon="12.177304803332069"><ele>258.0</ele><time>2026-04-30T11:55:42Z</time></trkpt><trkpt lat="43.17999580067691" lon="12.177551167184914"><ele>258.0</ele><time>2026-04-30T11:55:43Z</time></trkpt><trkpt lat="43.17989625905553" lon="12.17784231829155"><ele>258.0</ele><time>2026-04-30T11:55:44Z</time></trkpt><trkpt lat="43.179786863326854" lon="12.17811721889047"><ele>258.0</ele><time>2026-04-30T11:55:45Z</time></trkpt><trkpt lat="43.17968824553787" lon="12.178338948240981"><ele>258.0</ele><time>2026-04-30T11:55:46Z</time></trkpt><trkpt lat="43.17960574749955" lon="12.17853676707957"><ele>258.0</ele><time>2026-04-30T11:55:47Z</time></trkpt><trkpt lat="43.179528055173115" lon="12.178723745602051"><ele>258.0</ele><time>2026-04-30T11:55:48Z</time></trkpt><trkpt lat="43.17944609359036" lon="12.178920012825436"><ele>258.0</ele><time>2026-04-30T11:55:49Z</time></trkpt><trkpt lat="43.179363804970315" lon="12.17914928280658"><ele>259.0</ele><time>2026-04-30T11:55:50Z</time></trkpt><trkpt lat="43.17922927794484" lon="12.179379790000178"><ele>260.0</ele><time>2026-04-30T11:55:51Z</time></trkpt><trkpt lat="43.17908837939574" lon="12.17963675959892"><ele>259.0</ele><time>2026-04-30T11:55:52Z</time></trkpt><trkpt lat="43.17894047626897" lon="12.179930010301463"><ele>258.0</ele><time>2026-04-30T11:55:53Z</time></trkpt><trkpt lat="43.178750498549654" lon="12.180207524799801"><ele>258.0</ele><time>2026-04-30T11:55:54Z</time></trkpt><trkpt lat="43.1785758260356" lon="12.180471770499647"><ele>258.0</ele><time>2026-04-30T11:55:55Z</time></trkpt><trkpt lat="43.17841927874992" lon="12.18069651504407"><ele>257.6666666666667</ele><time>2026-04-30T11:55:56Z</time></trkpt><trkpt lat="43.1782881390821" lon="12.180877265461952"><ele>257.33333333333337</ele><time>2026-04-30T11:55:57Z</time></trkpt><trkpt lat="43.178168085538985" lon="12.181038012250463"><ele>257.0</ele><time>2026-04-30T11:55:58Z</time></trkpt><trkpt lat="43.178063220008475" lon="12.18117601888329"><ele>257.0</ele><time>2026-04-30T11:55:59Z</time></trkpt><trkpt lat="43.177967547987635" lon="12.181300947542969"><ele>257.0</ele><time>2026-04-30T11:56:00Z</time></trkpt><trkpt lat="43.177874837107304" lon="12.181424735728996"><ele>257.0</ele><time>2026-04-30T11:56:01Z</time></trkpt><trkpt lat="43.177776716602764" lon="12.181557273816836"><ele>257.0</ele><time>2026-04-30T11:56:02Z</time></trkpt><trkpt lat="43.17766836663408" lon="12.181691286185522"><ele>257.33333333333337</ele><time>2026-04-30T11:56:02.999Z</time></trkpt><trkpt lat="43.17755104442058" lon="12.181847644009999"><ele>257.6666666666667</ele><time>2026-04-30T11:56:03.999Z</time></trkpt><trkpt lat="43.17740946691704" lon="12.181994040350654"><ele>258.0</ele><time>2026-04-30T11:56:04.999Z</time></trkpt><trkpt lat="43.177277510492814" lon="12.182121733542617"><ele>258.0</ele><time>2026-04-30T11:56:05.999Z</time></trkpt><trkpt lat="43.177172568508105" lon="12.182215038614588"><ele>258.0</ele><time>2026-04-30T11:56:06.999Z</time></trkpt><trkpt lat="43.17707709468328" lon="12.18229126958381"><ele>258.0</ele><time>2026-04-30T11:56:07.999Z</time></trkpt><trkpt lat="43.176981799099984" lon="12.18231330046978"><ele>258.0</ele><time>2026-04-30T11:56:08.999Z</time></trkpt><trkpt lat="43.17691574783908" lon="12.182365292387141"><ele>258.0</ele><time>2026-04-30T11:56:09.999Z</time></trkpt><trkpt lat="43.17685960343967" lon="12.18242892798079"><ele>258.25</ele><time>2026-04-30T11:56:10.999Z</time></trkpt><trkpt lat="43.176802615712226" lon="12.182545495766375"><ele>258.5</ele><time>2026-04-30T11:56:11.999Z</time></trkpt><trkpt lat="43.17671442422847" lon="12.182648878692735"><ele>258.75</ele><time>2026-04-30T11:56:12.999Z</time></trkpt><trkpt lat="43.17659120043593" lon="12.182766576119144"><ele>259.0</ele><time>2026-04-30T11:56:13.999Z</time></trkpt><trkpt lat="43.176419893459425" lon="12.182919002094213"><ele>259.0</ele><time>2026-04-30T11:56:14.999Z</time></trkpt><trkpt lat="43.17623629735966" lon="12.183109782276302"><ele>259.0</ele><time>2026-04-30T11:56:15.999Z</time></trkpt><trkpt lat="43.17608287905191" lon="12.183253107480123"><ele>259.0</ele><time>2026-04-30T11:56:16.999Z</time></trkpt><trkpt lat="43.17594422472811" lon="12.183384839249781"><ele>259.0</ele><time>2026-04-30T11:56:17.999Z</time></trkpt><trkpt lat="43.17581985812016" lon="12.18350831495495"><ele>259.0</ele><time>2026-04-30T11:56:18.999Z</time></trkpt><trkpt lat="43.17570166023373" lon="12.183624222566952"><ele>259.0</ele><time>2026-04-30T11:56:19.999Z</time></trkpt><trkpt lat="43.175592117176215" lon="12.183721874558044"><ele>259.0</ele><time>2026-04-30T11:56:20.999Z</time></trkpt><trkpt lat="43.1754968470108" lon="12.183800609516377"><ele>258.75</ele><time>2026-04-30T11:56:21.999Z</time></trkpt><trkpt lat="43.17539415072249" lon="12.183873945439197"><ele>258.5</ele><time>2026-04-30T11:56:22.999Z</time></trkpt><trkpt lat="43.17526585018442" lon="12.183976747222518"><ele>258.25</ele><time>2026-04-30T11:56:23.999Z</time></trkpt><trkpt lat="43.17513948911925" lon="12.184089828529906"><ele>258.0</ele><time>2026-04-30T11:56:24.999Z</time></trkpt><trkpt lat="43.17501196908766" lon="12.184224203680703"><ele>258.0</ele><time>2026-04-30T11:56:25.999Z</time></trkpt><trkpt lat="43.17488537579545" lon="12.184387860897118"><ele>258.0</ele><time>2026-04-30T11:56:26.999Z</time></trkpt><trkpt lat="43.17476073266017" lon="12.184566125232562"><ele>258.0</ele><time>2026-04-30T11:56:27.999Z</time></trkpt><trkpt lat="43.17461038548436" lon="12.184693369522636"><ele>258.0</ele><time>2026-04-30T11:56:28.999Z</time></trkpt><trkpt lat="43.17446557208771" lon="12.184830245767028"><ele>258.0</ele><time>2026-04-30T11:56:29.999Z</time></trkpt><trkpt lat="43.17432907644963" lon="12.184961450461191"><ele>258.0</ele><time>2026-04-30T11:56:30.999Z</time></trkpt><trkpt lat="43.17420085247334" lon="12.185108936863001"><ele>258.0</ele><time>2026-04-30T11:56:31.999Z</time></trkpt><trkpt lat="43.17405344112883" lon="12.185237163496593"><ele>258.0</ele><time>2026-04-30T11:56:32.999Z</time></trkpt><trkpt lat="43.17390249249111" lon="12.18535987196361"><ele>258.0</ele><time>2026-04-30T11:56:33.999Z</time></trkpt><trkpt lat="43.173747039599" lon="12.18550040556932"><ele>258.0</ele><time>2026-04-30T11:56:34.999Z</time></trkpt><trkpt lat="43.17358617707992" lon="12.18566488697886"><ele>258.0</ele><time>2026-04-30T11:56:35.999Z</time></trkpt><trkpt lat="43.17341420692511" lon="12.185815918041321"><ele>258.0</ele><time>2026-04-30T11:56:36.999Z</time></trkpt><trkpt lat="43.17324170403338" lon="12.1859598073039"><ele>258.0</ele><time>2026-04-30T11:56:37.999Z</time></trkpt><trkpt lat="43.17308436686802" lon="12.18607949192278"><ele>258.0</ele><time>2026-04-30T11:56:38.999Z</time></trkpt><trkpt lat="43.17293876658582" lon="12.186188858033905"><ele>258.0</ele><time>2026-04-30T11:56:39.999Z</time></trkpt><trkpt lat="43.17279753684785" lon="12.186295444725888"><ele>258.0</ele><time>2026-04-30T11:56:40.999Z</time></trkpt><trkpt lat="43.17265949909111" lon="12.18639587305879"><ele>258.0</ele><time>2026-04-30T11:56:41.999Z</time></trkpt><trkpt lat="43.17253143319148" lon="12.186490074608345"><ele>258.0</ele><time>2026-04-30T11:56:42.999Z</time></trkpt><trkpt lat="43.17239978423295" lon="12.186583765610719"><ele>258.0</ele><time>2026-04-30T11:56:43.999Z</time></trkpt><trkpt lat="43.17226002267759" lon="12.186678944502509"><ele>258.0</ele><time>2026-04-30T11:56:44.999Z</time></trkpt><trkpt lat="43.17210478140385" lon="12.186786499332463"><ele>258.0</ele><time>2026-04-30T11:56:45.999Z</time></trkpt><trkpt lat="43.17193208304482" lon="12.186895628121427"><ele>258.0</ele><time>2026-04-30T11:56:46.999Z</time></trkpt><trkpt lat="43.17173996535455" lon="12.186982174368994"><ele>258.0</ele><time>2026-04-30T11:56:47.999Z</time></trkpt><trkpt lat="43.17155225550576" lon="12.187086218330043"><ele>258.0</ele><time>2026-04-30T11:56:48.999Z</time></trkpt><trkpt lat="43.17135692862956" lon="12.187199340100358"><ele>258.0</ele><time>2026-04-30T11:56:49.999Z</time></trkpt><trkpt lat="43.171166578890315" lon="12.187329142228597"><ele>258.0</ele><time>2026-04-30T11:56:50.999Z</time></trkpt><trkpt lat="43.170991579882205" lon="12.187420211610203"><ele>258.0</ele><time>2026-04-30T11:56:51.999Z</time></trkpt><trkpt lat="43.170833257567494" lon="12.187500255260451"><ele>258.5</ele><time>2026-04-30T11:56:52.999Z</time></trkpt><trkpt lat="43.17069003543639" lon="12.187563076047772"><ele>259.0</ele><time>2026-04-30T11:56:53.999Z</time></trkpt><trkpt lat="43.17055610875832" lon="12.187617952397883"><ele>259.5</ele><time>2026-04-30T11:56:54.999Z</time></trkpt><trkpt lat="43.17042482788213" lon="12.187643995498007"><ele>260.0</ele><time>2026-04-30T11:56:55.999Z</time></trkpt><trkpt lat="43.17030610210037" lon="12.187687618719265"><ele>260.0</ele><time>2026-04-30T11:56:56.999Z</time></trkpt><trkpt lat="43.170199583849204" lon="12.187725190446104"><ele>260.0</ele><time>2026-04-30T11:56:57.999Z</time></trkpt><trkpt lat="43.17009674498025" lon="12.187760749838617"><ele>260.0</ele><time>2026-04-30T11:56:58.999Z</time></trkpt><trkpt lat="43.16997532268006" lon="12.187801670115787"><ele>260.0</ele><time>2026-04-30T11:56:59.999Z</time></trkpt><trkpt lat="43.16982537628691" lon="12.187851316054429"><ele>259.6666666666667</ele><time>2026-04-30T11:57:00.999Z</time></trkpt><trkpt lat="43.16965433942153" lon="12.187904369913584"><ele>259.3333333333333</ele><time>2026-04-30T11:57:01.999Z</time></trkpt><trkpt lat="43.16948206961625" lon="12.1879759163972"><ele>259.0</ele><time>2026-04-30T11:57:02.999Z</time></trkpt><trkpt lat="43.16929298343585" lon="12.188029166326077"><ele>259.0</ele><time>2026-04-30T11:57:03.999Z</time></trkpt><trkpt lat="43.169085247137446" lon="12.188085637660745"><ele>259.0</ele><time>2026-04-30T11:57:04.999Z</time></trkpt><trkpt lat="43.16886617189056" lon="12.188111837063792"><ele>259.0</ele><time>2026-04-30T11:57:05.999Z</time></trkpt><trkpt lat="43.16863914933614" lon="12.188150695437331"><ele>260.5</ele><time>2026-04-30T11:57:06.999Z</time></trkpt><trkpt lat="43.16839004970306" lon="12.188209720547446"><ele>262.0</ele><time>2026-04-30T11:57:07.999Z</time></trkpt><trkpt lat="43.168145158696824" lon="12.188235726855899"><ele>262.0</ele><time>2026-04-30T11:57:08.999Z</time></trkpt><trkpt lat="43.167919096070904" lon="12.188258764493733"><ele>262.0</ele><time>2026-04-30T11:57:10Z</time></trkpt><trkpt lat="43.16768658125854" lon="12.188281244270817"><ele>262.0</ele><time>2026-04-30T11:57:11Z</time></trkpt><trkpt lat="43.16744392121907" lon="12.188301847738172"><ele>262.0</ele><time>2026-04-30T11:57:12Z</time></trkpt><trkpt lat="43.167187672250805" lon="12.188325972366526"><ele>261.5</ele><time>2026-04-30T11:57:13Z</time></trkpt><trkpt lat="43.16690976068349" lon="12.188355858083721"><ele>261.0</ele><time>2026-04-30T11:57:14Z</time></trkpt><trkpt lat="43.166609221839984" lon="12.188379017115997"><ele>260.0</ele><time>2026-04-30T11:57:15Z</time></trkpt><trkpt lat="43.16629250500709" lon="12.188399252264915"><ele>259.0</ele><time>2026-04-30T11:57:16Z</time></trkpt><trkpt lat="43.165978361919" lon="12.188424630893023"><ele>259.0</ele><time>2026-04-30T11:57:17Z</time></trkpt><trkpt lat="43.165702699383985" lon="12.18844663233516"><ele>259.0</ele><time>2026-04-30T11:57:18Z</time></trkpt><trkpt lat="43.16546202672363" lon="12.188469230171728"><ele>258.5</ele><time>2026-04-30T11:57:19Z</time></trkpt><trkpt lat="43.16523590059602" lon="12.188489859968827"><ele>258.0</ele><time>2026-04-30T11:57:20Z</time></trkpt><trkpt lat="43.165009396146885" lon="12.188512654031483"><ele>258.0</ele><time>2026-04-30T11:57:21Z</time></trkpt><trkpt lat="43.16479915312033" lon="12.188536292367031"><ele>258.0</ele><time>2026-04-30T11:57:22Z</time></trkpt><trkpt lat="43.164603419250554" lon="12.188533879530155"><ele>258.0</ele><time>2026-04-30T11:57:23Z</time></trkpt><trkpt lat="43.1644273652699" lon="12.188550694053797"><ele>258.0</ele><time>2026-04-30T11:57:24Z</time></trkpt><trkpt lat="43.164272151447996" lon="12.188565460783906"><ele>258.0</ele><time>2026-04-30T11:57:25Z</time></trkpt><trkpt lat="43.16413178613024" lon="12.18857832765683"><ele>258.0</ele><time>2026-04-30T11:57:26Z</time></trkpt><trkpt lat="43.16400730949912" lon="12.188609838600941"><ele>258.0</ele><time>2026-04-30T11:57:27Z</time></trkpt><trkpt lat="43.16388618867525" lon="12.18860741685308"><ele>258.0</ele><time>2026-04-30T11:57:28Z</time></trkpt><trkpt lat="43.16376957635504" lon="12.188605650559166"><ele>258.0</ele><time>2026-04-30T11:57:29Z</time></trkpt><trkpt lat="43.16365579098676" lon="12.188614117983537"><ele>258.0</ele><time>2026-04-30T11:57:30Z</time></trkpt><trkpt lat="43.163534183876024" lon="12.188627452338869"><ele>258.0</ele><time>2026-04-30T11:57:31Z</time></trkpt><trkpt lat="43.163392268057315" lon="12.188614763121612"><ele>258.0</ele><time>2026-04-30T11:57:32Z</time></trkpt><trkpt lat="43.163231483900674" lon="12.188622393877417"><ele>258.0</ele><time>2026-04-30T11:57:33Z</time></trkpt><trkpt lat="43.163052784824316" lon="12.188630985473978"><ele>258.0</ele><time>2026-04-30T11:57:34Z</time></trkpt><trkpt lat="43.162885404581914" lon="12.188640377365004"><ele>258.0</ele><time>2026-04-30T11:57:35Z</time></trkpt><trkpt lat="43.162731069178534" lon="12.188649037295072"><ele>258.0</ele><time>2026-04-30T11:57:36Z</time></trkpt><trkpt lat="43.16258813846777" lon="12.18865689465283"><ele>258.0</ele><time>2026-04-30T11:57:37Z</time></trkpt><trkpt lat="43.162453533935384" lon="12.188664260966663"><ele>258.0</ele><time>2026-04-30T11:57:38Z</time></trkpt><trkpt lat="43.162316603015086" lon="12.188671754591718"><ele>258.3333333333333</ele><time>2026-04-30T11:57:39Z</time></trkpt><trkpt lat="43.16217107247709" lon="12.188679718837479"><ele>258.66666666666663</ele><time>2026-04-30T11:57:40Z</time></trkpt><trkpt lat="43.16201398784435" lon="12.188686851413596"><ele>259.0</ele><time>2026-04-30T11:57:41Z</time></trkpt><trkpt lat="43.16186479143486" lon="12.188688725818812"><ele>259.0</ele><time>2026-04-30T11:57:42Z</time></trkpt><trkpt lat="43.16172048614848" lon="12.188686312457975"><ele>259.0</ele><time>2026-04-30T11:57:43Z</time></trkpt><trkpt lat="43.161561305316596" lon="12.18870033235107"><ele>259.0</ele><time>2026-04-30T11:57:44Z</time></trkpt><trkpt lat="43.16141175094159" lon="12.188686395399307"><ele>259.4</ele><time>2026-04-30T11:57:45Z</time></trkpt><trkpt lat="43.16127972175923" lon="12.188646940135735"><ele>259.79999999999995</ele><time>2026-04-30T11:57:46Z</time></trkpt><trkpt lat="43.16116109272404" lon="12.18862527891662"><ele>260.20000000000005</ele><time>2026-04-30T11:57:47Z</time></trkpt><trkpt lat="43.16106144397888" lon="12.188607176785565"><ele>260.6</ele><time>2026-04-30T11:57:48Z</time></trkpt><trkpt lat="43.16098294981126" lon="12.188610462995353"><ele>261.0</ele><time>2026-04-30T11:57:49Z</time></trkpt><trkpt lat="43.1608833051199" lon="12.18857828423244"><ele>261.0</ele><time>2026-04-30T11:57:51Z</time></trkpt><trkpt lat="43.16081306632199" lon="12.188501591830985"><ele>261.0</ele><time>2026-04-30T11:57:52Z</time></trkpt><trkpt lat="43.160734531382495" lon="12.18837255624743"><ele>261.0</ele><time>2026-04-30T11:57:53Z</time></trkpt><trkpt lat="43.16063953402509" lon="12.188214941557792"><ele>261.0</ele><time>2026-04-30T11:57:54Z</time></trkpt><trkpt lat="43.16051888962659" lon="12.188060048661766"><ele>261.75</ele><time>2026-04-30T11:57:55Z</time></trkpt><trkpt lat="43.160408523731135" lon="12.187906632480784"><ele>262.5</ele><time>2026-04-30T11:57:56Z</time></trkpt><trkpt lat="43.16031332503736" lon="12.187772062568007"><ele>263.25</ele><time>2026-04-30T11:57:57Z</time></trkpt><trkpt lat="43.16023223851068" lon="12.187649923893323"><ele>264.0</ele><time>2026-04-30T11:57:58Z</time></trkpt><trkpt lat="43.16017211449037" lon="12.187569033953231"><ele>264.0</ele><time>2026-04-30T11:57:59Z</time></trkpt><trkpt lat="43.160057601758325" lon="12.187459548179369"><ele>264.0</ele><time>2026-04-30T11:58:01Z</time></trkpt><trkpt lat="43.159969008650066" lon="12.187394223945725"><ele>264.0</ele><time>2026-04-30T11:58:03Z</time></trkpt><trkpt lat="43.15980910983294" lon="12.187604560926962"><ele>264.0</ele><time>2026-04-30T11:58:05.999Z</time></trkpt><trkpt lat="43.1597591525057" lon="12.187699486270665"><ele>264.0</ele><time>2026-04-30T11:58:07.999Z</time></trkpt><trkpt lat="43.15971555524581" lon="12.187781116884558"><ele>264.0</ele><time>2026-04-30T11:58:08.999Z</time></trkpt><trkpt lat="43.159321985326606" lon="12.188001679084968"><ele>264.0</ele><time>2026-04-30T11:58:10.999Z</time></trkpt><trkpt lat="43.15926749876215" lon="12.18805207741212"><ele>264.0</ele><time>2026-04-30T11:58:11.999Z</time></trkpt><trkpt lat="43.159196443088554" lon="12.188107453298153"><ele>264.0</ele><time>2026-04-30T11:58:13.999Z</time></trkpt><trkpt lat="43.15908249280631" lon="12.18822960579263"><ele>264.0</ele><time>2026-04-30T11:59:13.999Z</time></trkpt><trkpt lat="43.15898141448424" lon="12.188317057174809"><ele>264.0</ele><time>2026-04-30T11:59:14.999Z</time></trkpt><trkpt lat="43.15884770072767" lon="12.188424206615101"><ele>264.3333333333333</ele><time>2026-04-30T11:59:16Z</time></trkpt><trkpt lat="43.15869795528211" lon="12.188553641109655"><ele>264.66666666666663</ele><time>2026-04-30T11:59:17Z</time></trkpt><trkpt lat="43.158565262217955" lon="12.188679539333753"><ele>265.0</ele><time>2026-04-30T11:59:18Z</time></trkpt><trkpt lat="43.15844732326106" lon="12.18878587956085"><ele>265.0</ele><time>2026-04-30T11:59:19Z</time></trkpt><trkpt lat="43.15830758784364" lon="12.188904424088989"><ele>265.0</ele><time>2026-04-30T11:59:20Z</time></trkpt><trkpt lat="43.1581528411877" lon="12.18903281289668"><ele>265.0</ele><time>2026-04-30T11:59:21Z</time></trkpt><trkpt lat="43.15800418374393" lon="12.189158664267165"><ele>265.3333333333333</ele><time>2026-04-30T11:59:22Z</time></trkpt><trkpt lat="43.15786819532464" lon="12.189276284377074"><ele>265.6666666666667</ele><time>2026-04-30T11:59:23Z</time></trkpt><trkpt lat="43.157736441190444" lon="12.189396436531862"><ele>266.0</ele><time>2026-04-30T11:59:24Z</time></trkpt><trkpt lat="43.15760157547836" lon="12.189519206622336"><ele>266.0</ele><time>2026-04-30T11:59:25Z</time></trkpt><trkpt lat="43.15746461591467" lon="12.189644511713889"><ele>266.0</ele><time>2026-04-30T11:59:26Z</time></trkpt><trkpt lat="43.157318342330505" lon="12.189772040694084"><ele>266.0</ele><time>2026-04-30T11:59:27Z</time></trkpt><trkpt lat="43.157159379599385" lon="12.189917418617325"><ele>265.6666666666667</ele><time>2026-04-30T11:59:28Z</time></trkpt><trkpt lat="43.15698943181373" lon="12.190074497980378"><ele>265.3333333333333</ele><time>2026-04-30T11:59:29Z</time></trkpt><trkpt lat="43.156806410216205" lon="12.19024066460559"><ele>265.0</ele><time>2026-04-30T11:59:30Z</time></trkpt><trkpt lat="43.15663054617249" lon="12.190402500067584"><ele>266.66666666666663</ele><time>2026-04-30T11:59:31Z</time></trkpt><trkpt lat="43.15647991614355" lon="12.190545686405798"><ele>268.3333333333333</ele><time>2026-04-30T11:59:32Z</time></trkpt><trkpt lat="43.15634647251304" lon="12.190673568909892"><ele>270.0</ele><time>2026-04-30T11:59:33Z</time></trkpt><trkpt lat="43.156225646993406" lon="12.190789306242502"><ele>270.2</ele><time>2026-04-30T11:59:34Z</time></trkpt><trkpt lat="43.156122461418015" lon="12.190885195858062"><ele>270.4</ele><time>2026-04-30T11:59:35Z</time></trkpt><trkpt lat="43.15603596124153" lon="12.190968490659632"><ele>270.6</ele><time>2026-04-30T11:59:36Z</time></trkpt><trkpt lat="43.15597207658022" lon="12.191031049018427"><ele>270.8</ele><time>2026-04-30T11:59:37Z</time></trkpt><trkpt lat="43.15591668059125" lon="12.191078864201566"><ele>271.0</ele><time>2026-04-30T11:59:38Z</time></trkpt><trkpt lat="43.15583930979074" lon="12.191116780214704"><ele>271.0</ele><time>2026-04-30T11:59:40Z</time></trkpt><trkpt lat="43.15578001479659" lon="12.190988863458669"><ele>271.0</ele><time>2026-04-30T11:59:42Z</time></trkpt><trkpt lat="43.155715733496" lon="12.190887948408772"><ele>271.0</ele><time>2026-04-30T11:59:43Z</time></trkpt><trkpt lat="43.15565412453053" lon="12.19073777223948"><ele>271.0</ele><time>2026-04-30T11:59:44Z</time></trkpt><trkpt lat="43.15559177651065" lon="12.19057279624381"><ele>273.8</ele><time>2026-04-30T11:59:45Z</time></trkpt><trkpt lat="43.155533286094375" lon="12.190422167930222"><ele>276.6</ele><time>2026-04-30T11:59:46Z</time></trkpt><trkpt lat="43.15548193428917" lon="12.190295238307245"><ele>279.4</ele><time>2026-04-30T11:59:47Z</time></trkpt><trkpt lat="43.155440820136405" lon="12.190169472485497"><ele>282.2</ele><time>2026-04-30T11:59:48Z</time></trkpt><trkpt lat="43.15542440756746" lon="12.19001113097325"><ele>285.0</ele><time>2026-04-30T11:59:49Z</time></trkpt><trkpt lat="43.15540838825861" lon="12.189854560529831"><ele>283.75</ele><time>2026-04-30T11:59:50Z</time></trkpt><trkpt lat="43.15537519640356" lon="12.18972972233207"><ele>282.5</ele><time>2026-04-30T11:59:51Z</time></trkpt><trkpt lat="43.155317852986656" lon="12.189598180025712"><ele>281.25</ele><time>2026-04-30T11:59:52Z</time></trkpt><trkpt lat="43.15525466540121" lon="12.189436110387668"><ele>280.0</ele><time>2026-04-30T11:59:53Z</time></trkpt><trkpt lat="43.15518107455693" lon="12.189257187454523"><ele>280.0</ele><time>2026-04-30T11:59:54Z</time></trkpt><trkpt lat="43.155109064797536" lon="12.18907315014179"><ele>280.0</ele><time>2026-04-30T11:59:55Z</time></trkpt><trkpt lat="43.15504887565041" lon="12.188913067139254"><ele>280.0</ele><time>2026-04-30T11:59:56Z</time></trkpt><trkpt lat="43.15500116715729" lon="12.18877866266829"><ele>280.0</ele><time>2026-04-30T11:59:57Z</time></trkpt><trkpt lat="43.15496346440843" lon="12.188664351712466"><ele>279.2</ele><time>2026-04-30T11:59:58Z</time></trkpt><trkpt lat="43.15493925138728" lon="12.188564838039811"><ele>278.4</ele><time>2026-04-30T11:59:59Z</time></trkpt><trkpt lat="43.15495970834224" lon="12.188443274688055"><ele>277.6</ele><time>2026-04-30T12:00:00Z</time></trkpt><trkpt lat="43.1549419697922" lon="12.188298166000616"><ele>276.8</ele><time>2026-04-30T12:00:01Z</time></trkpt><trkpt lat="43.15493036957725" lon="12.188163480158392"><ele>276.0</ele><time>2026-04-30T12:00:02Z</time></trkpt><trkpt lat="43.154880735673686" lon="12.18804143358067"><ele>277.40000000000003</ele><time>2026-04-30T12:00:03Z</time></trkpt><trkpt lat="43.154808346705146" lon="12.187905614564805"><ele>278.8</ele><time>2026-04-30T12:00:04Z</time></trkpt><trkpt lat="43.15472879335657" lon="12.187779532271811"><ele>280.20000000000005</ele><time>2026-04-30T12:00:05Z</time></trkpt><trkpt lat="43.15465773633782" lon="12.187686971993516"><ele>281.6</ele><time>2026-04-30T12:00:06Z</time></trkpt><trkpt lat="43.154600148709434" lon="12.187615643859257"><ele>283.0</ele><time>2026-04-30T12:00:06.999Z</time></trkpt><trkpt lat="43.15454439721235" lon="12.18757076871499"><ele>283.0</ele><time>2026-04-30T12:00:07.999Z</time></trkpt><trkpt lat="43.15448303425423" lon="12.187536994294888"><ele>283.0</ele><time>2026-04-30T12:00:08.999Z</time></trkpt><trkpt lat="43.15441242567222" lon="12.187511193259528"><ele>283.0</ele><time>2026-04-30T12:00:09.999Z</time></trkpt><trkpt lat="43.15432817077672" lon="12.187510950044084"><ele>283.0</ele><time>2026-04-30T12:00:11.999Z</time></trkpt><trkpt lat="43.1537362520546" lon="12.188071991633194"><ele>283.0</ele><time>2026-04-30T12:00:12.999Z</time></trkpt><trkpt lat="43.15427370264175" lon="12.188146754437112"><ele>285.2</ele><time>2026-04-30T12:00:13.999Z</time></trkpt><trkpt lat="43.1542224895855" lon="12.188221093193928"><ele>287.4</ele><time>2026-04-30T12:00:14.999Z</time></trkpt><trkpt lat="43.15417231881826" lon="12.188303684763682"><ele>289.59999999999997</ele><time>2026-04-30T12:00:15.999Z</time></trkpt><trkpt lat="43.15407805563742" lon="12.188226423487015"><ele>291.8</ele><time>2026-04-30T12:00:16.999Z</time></trkpt><trkpt lat="43.15400569125188" lon="12.188307174121945"><ele>294.0</ele><time>2026-04-30T12:00:17.999Z</time></trkpt><trkpt lat="43.15393171043036" lon="12.18841195155582"><ele>295.2</ele><time>2026-04-30T12:00:18.999Z</time></trkpt><trkpt lat="43.15386418283335" lon="12.188507772201378"><ele>296.4</ele><time>2026-04-30T12:00:19.999Z</time></trkpt><trkpt lat="43.15376153350679" lon="12.188584979340181"><ele>297.6</ele><time>2026-04-30T12:00:21.999Z</time></trkpt><trkpt lat="43.15370584011597" lon="12.18863071200352"><ele>298.8</ele><time>2026-04-30T12:00:22.999Z</time></trkpt><trkpt lat="43.15362737023092" lon="12.188678343685883"><ele>300.0</ele><time>2026-04-30T12:00:23.999Z</time></trkpt><trkpt lat="43.15355569524347" lon="12.188747118239448"><ele>300.0</ele><time>2026-04-30T12:00:24.999Z</time></trkpt><trkpt lat="43.153486565350214" lon="12.188832217614765"><ele>300.0</ele><time>2026-04-30T12:00:25.999Z</time></trkpt><trkpt lat="43.153404806615086" lon="12.188889862548589"><ele>300.0</ele><time>2026-04-30T12:00:26.999Z</time></trkpt><trkpt lat="43.15330336676128" lon="12.188937352421956"><ele>300.0</ele><time>2026-04-30T12:00:27.999Z</time></trkpt><trkpt lat="43.15322463953039" lon="12.18896753590412"><ele>300.0</ele><time>2026-04-30T12:00:28.999Z</time></trkpt><trkpt lat="43.15313517194225" lon="12.189019780614952"><ele>302.6</ele><time>2026-04-30T12:00:30.999Z</time></trkpt><trkpt lat="43.153112981541284" lon="12.189133245641925"><ele>305.2</ele><time>2026-04-30T12:00:32.999Z</time></trkpt><trkpt lat="43.15315342019969" lon="12.18928766979932"><ele>307.8</ele><time>2026-04-30T12:00:34.999Z</time></trkpt><trkpt lat="43.15317997233605" lon="12.189372879893044"><ele>310.4</ele><time>2026-04-30T12:00:35.999Z</time></trkpt><trkpt lat="43.15322624931485" lon="12.189536057573678"><ele>313.0</ele><time>2026-04-30T12:00:37.999Z</time></trkpt><trkpt lat="43.15326962211791" lon="12.189609006167828"><ele>313.0</ele><time>2026-04-30T12:00:38.999Z</time></trkpt><trkpt lat="43.15330554915137" lon="12.189686567356954"><ele>313.0</ele><time>2026-04-30T12:00:39.999Z</time></trkpt><trkpt lat="43.153335753003596" lon="12.189797197833267"><ele>313.0</ele><time>2026-04-30T12:00:40.999Z</time></trkpt><trkpt lat="43.15335572714504" lon="12.18989194146482"><ele>313.0</ele><time>2026-04-30T12:00:41.999Z</time></trkpt><trkpt lat="43.153353343997864" lon="12.189980449262167"><ele>313.0</ele><time>2026-04-30T12:00:43.999Z</time></trkpt><trkpt lat="43.15325794314079" lon="12.18997582690585"><ele>313.0</ele><time>2026-04-30T12:00:45.999Z</time></trkpt><trkpt lat="43.153283283492534" lon="12.190176307067954"><ele>317.2</ele><time>2026-04-30T12:00:46.999Z</time></trkpt><trkpt lat="43.15317631727844" lon="12.190142413413508"><ele>321.4</ele><time>2026-04-30T12:00:48.999Z</time></trkpt><trkpt lat="43.15304431711711" lon="12.19002704289202"><ele>325.59999999999997</ele><time>2026-04-30T12:00:50.999Z</time></trkpt><trkpt lat="43.152964585734644" lon="12.18999307695684"><ele>329.8</ele><time>2026-04-30T12:00:51.999Z</time></trkpt><trkpt lat="43.152882473789404" lon="12.189983609472758"><ele>334.0</ele><time>2026-04-30T12:00:52.999Z</time></trkpt><trkpt lat="43.15278490763841" lon="12.189997416949726"><ele>334.0</ele><time>2026-04-30T12:00:53.999Z</time></trkpt><trkpt lat="43.152691013119465" lon="12.19001238282615"><ele>334.0</ele><time>2026-04-30T12:00:54.999Z</time></trkpt><trkpt lat="43.15260236374485" lon="12.190013010840522"><ele>334.0</ele><time>2026-04-30T12:00:55.999Z</time></trkpt><trkpt lat="43.15252591958052" lon="12.19001598736296"><ele>334.0</ele><time>2026-04-30T12:00:56.999Z</time></trkpt><trkpt lat="43.15245869642536" lon="12.190047145412926"><ele>334.0</ele><time>2026-04-30T12:00:57.999Z</time></trkpt><trkpt lat="43.15239618403271" lon="12.190095346265686"><ele>334.0</ele><time>2026-04-30T12:00:58.999Z</time></trkpt><trkpt lat="43.15232680916948" lon="12.190158009300765"><ele>336.4</ele><time>2026-04-30T12:00:59.999Z</time></trkpt><trkpt lat="43.15224494173222" lon="12.190222579397435"><ele>338.79999999999995</ele><time>2026-04-30T12:01:00.999Z</time></trkpt><trkpt lat="43.152154126519186" lon="12.190260697303987"><ele>341.20000000000005</ele><time>2026-04-30T12:01:01.999Z</time></trkpt><trkpt lat="43.15206044552701" lon="12.19027037774468"><ele>343.6</ele><time>2026-04-30T12:01:02.999Z</time></trkpt><trkpt lat="43.15195905124279" lon="12.19026857397406"><ele>346.0</ele><time>2026-04-30T12:01:03.999Z</time></trkpt><trkpt lat="43.15186007683888" lon="12.190259472729359"><ele>346.0</ele><time>2026-04-30T12:01:04.999Z</time></trkpt><trkpt lat="43.151698097643575" lon="12.190051704613435"><ele>346.0</ele><time>2026-04-30T12:01:05.999Z</time></trkpt><trkpt lat="43.151596573765055" lon="12.1899846835847"><ele>346.0</ele><time>2026-04-30T12:01:06.999Z</time></trkpt><trkpt lat="43.15151397754701" lon="12.189959983741023"><ele>346.0</ele><time>2026-04-30T12:01:07.999Z</time></trkpt><trkpt lat="43.151424528765595" lon="12.189951293284416"><ele>347.75</ele><time>2026-04-30T12:01:08.999Z</time></trkpt><trkpt lat="43.1513112226531" lon="12.189991247151893"><ele>349.5</ele><time>2026-04-30T12:01:09.999Z</time></trkpt><trkpt lat="43.15120084457444" lon="12.190057301594402"><ele>351.25</ele><time>2026-04-30T12:01:10.999Z</time></trkpt><trkpt lat="43.15109450435138" lon="12.190160216900576"><ele>353.0</ele><time>2026-04-30T12:01:11.999Z</time></trkpt><trkpt lat="43.15101673728244" lon="12.19025575258854"><ele>353.0</ele><time>2026-04-30T12:01:12.999Z</time></trkpt><trkpt lat="43.15095687943182" lon="12.190324061193879"><ele>353.0</ele><time>2026-04-30T12:01:13.999Z</time></trkpt><trkpt lat="43.1508934215545" lon="12.190347720904263"><ele>353.0</ele><time>2026-04-30T12:01:14.999Z</time></trkpt><trkpt lat="43.15081440621996" lon="12.19032365658197"><ele>353.0</ele><time>2026-04-30T12:01:15.999Z</time></trkpt><trkpt lat="43.15072478395474" lon="12.190246089479333"><ele>353.0</ele><time>2026-04-30T12:01:16.999Z</time></trkpt><trkpt lat="43.15063177543076" lon="12.190111103365979"><ele>355.2</ele><time>2026-04-30T12:01:17.999Z</time></trkpt><trkpt lat="43.15055913727065" lon="12.18997410696915"><ele>357.4</ele><time>2026-04-30T12:01:18.999Z</time></trkpt><trkpt lat="43.15050017711241" lon="12.189900598167426"><ele>359.59999999999997</ele><time>2026-04-30T12:01:19.999Z</time></trkpt><trkpt lat="43.150435327649724" lon="12.189860203234478"><ele>361.79999999999995</ele><time>2026-04-30T12:01:20.999Z</time></trkpt><trkpt lat="43.150331481053975" lon="12.189860625306952"><ele>364.0</ele><time>2026-04-30T12:01:22Z</time></trkpt><trkpt lat="43.15020934640933" lon="12.189892646189183"><ele>364.0</ele><time>2026-04-30T12:01:23Z</time></trkpt><trkpt lat="43.15008185788342" lon="12.189941919576668"><ele>364.0</ele><time>2026-04-30T12:01:24Z</time></trkpt><trkpt lat="43.149980118405374" lon="12.189939215489602"><ele>364.0</ele><time>2026-04-30T12:01:25Z</time></trkpt><trkpt lat="43.14988237257932" lon="12.18994798593503"><ele>364.0</ele><time>2026-04-30T12:01:26Z</time></trkpt><trkpt lat="43.149781551114664" lon="12.190021929288347"><ele>364.0</ele><time>2026-04-30T12:01:27Z</time></trkpt><trkpt lat="43.14969459999991" lon="12.190091744058202"><ele>365.4</ele><time>2026-04-30T12:01:28Z</time></trkpt><trkpt lat="43.149627701214314" lon="12.190150910627832"><ele>366.79999999999995</ele><time>2026-04-30T12:01:29Z</time></trkpt><trkpt lat="43.149562443781534" lon="12.190198723867386"><ele>368.20000000000005</ele><time>2026-04-30T12:01:30Z</time></trkpt><trkpt lat="43.14948939253795" lon="12.19023524994753"><ele>369.6</ele><time>2026-04-30T12:01:33Z</time></trkpt><trkpt lat="43.1494199802404" lon="12.190237664930594"><ele>371.0</ele><time>2026-04-30T12:01:35Z</time></trkpt><trkpt lat="43.14942024682182" lon="12.189989294689553"><ele>371.0</ele><time>2026-04-30T12:01:36Z</time></trkpt><trkpt lat="43.14927891145661" lon="12.189899755468417"><ele>371.0</ele><time>2026-04-30T12:01:38Z</time></trkpt><trkpt lat="43.14915893687811" lon="12.18988070128711"><ele>371.0</ele><time>2026-04-30T12:01:39Z</time></trkpt><trkpt lat="43.14902550621887" lon="12.189823972232148"><ele>371.0</ele><time>2026-04-30T12:01:40Z</time></trkpt><trkpt lat="43.14888962303433" lon="12.18977806863839"><ele>373.0</ele><time>2026-04-30T12:01:41Z</time></trkpt><trkpt lat="43.1487693406115" lon="12.18973008597231"><ele>375.0</ele><time>2026-04-30T12:01:42Z</time></trkpt><trkpt lat="43.14867238742633" lon="12.189685715474676"><ele>377.0</ele><time>2026-04-30T12:01:43Z</time></trkpt><trkpt lat="43.148585391818685" lon="12.189640896777144"><ele>379.0</ele><time>2026-04-30T12:01:44Z</time></trkpt><trkpt lat="43.1485055403493" lon="12.189598204821134"><ele>381.0</ele><time>2026-04-30T12:01:45Z</time></trkpt><trkpt lat="43.14842716577039" lon="12.189559281589982"><ele>381.0</ele><time>2026-04-30T12:01:46Z</time></trkpt><trkpt lat="43.14834255904587" lon="12.189537908580233"><ele>381.0</ele><time>2026-04-30T12:01:47Z</time></trkpt><trkpt lat="43.14824745657339" lon="12.189492157132179"><ele>381.0</ele><time>2026-04-30T12:01:48Z</time></trkpt><trkpt lat="43.14813059965204" lon="12.18946733871739"><ele>381.0</ele><time>2026-04-30T12:01:49Z</time></trkpt><trkpt lat="43.148016871417404" lon="12.189452217929606"><ele>381.0</ele><time>2026-04-30T12:01:50Z</time></trkpt><trkpt lat="43.14791952412836" lon="12.189413965121744"><ele>378.8</ele><time>2026-04-30T12:01:51Z</time></trkpt><trkpt lat="43.147821552004785" lon="12.189396741699285"><ele>376.6</ele><time>2026-04-30T12:01:53Z</time></trkpt><trkpt lat="43.14770782478661" lon="12.189379626471428"><ele>374.4</ele><time>2026-04-30T12:01:55Z</time></trkpt><trkpt lat="43.14761512458786" lon="12.189369796849059"><ele>372.2</ele><time>2026-04-30T12:01:56Z</time></trkpt><trkpt lat="43.147487657133944" lon="12.189367134984284"><ele>370.0</ele><time>2026-04-30T12:01:57Z</time></trkpt><trkpt lat="43.147372601176514" lon="12.189347690655959"><ele>368.0</ele><time>2026-04-30T12:01:58Z</time></trkpt><trkpt lat="43.14727081642773" lon="12.18932490474767"><ele>366.0</ele><time>2026-04-30T12:01:59Z</time></trkpt><trkpt lat="43.14717450952978" lon="12.189308500334866"><ele>364.0</ele><time>2026-04-30T12:02:00Z</time></trkpt><trkpt lat="43.14709751893465" lon="12.1892989329699"><ele>362.0</ele><time>2026-04-30T12:02:01Z</time></trkpt><trkpt lat="43.14702905803651" lon="12.189296745437709"><ele>360.0</ele><time>2026-04-30T12:02:02Z</time></trkpt><trkpt lat="43.14695699501083" lon="12.189295527206871"><ele>358.0</ele><time>2026-04-30T12:02:03Z</time></trkpt><trkpt lat="43.14688223556279" lon="12.18931215140191"><ele>358.0</ele><time>2026-04-30T12:02:04Z</time></trkpt><trkpt lat="43.14680699588373" lon="12.189341000278311"><ele>358.0</ele><time>2026-04-30T12:02:05Z</time></trkpt><trkpt lat="43.1467371542392" lon="12.189339854643109"><ele>358.0</ele><time>2026-04-30T12:02:06Z</time></trkpt><trkpt lat="43.14664766127184" lon="12.18937876982807"><ele>358.0</ele><time>2026-04-30T12:02:08Z</time></trkpt><trkpt lat="43.146572927029254" lon="12.189399450229411"><ele>358.0</ele><time>2026-04-30T12:02:09.999Z</time></trkpt><trkpt lat="43.146481228058555" lon="12.189313783023577"><ele>358.0</ele><time>2026-04-30T12:02:11.999Z</time></trkpt><trkpt lat="43.146455377064285" lon="12.189230922263572"><ele>357.16666666666663</ele><time>2026-04-30T12:02:12.999Z</time></trkpt><trkpt lat="43.14640248319519" lon="12.189146873836647"><ele>356.3333333333333</ele><time>2026-04-30T12:02:13.999Z</time></trkpt><trkpt lat="43.1463553743901" lon="12.189038060127892"><ele>355.5</ele><time>2026-04-30T12:02:14.999Z</time></trkpt><trkpt lat="43.14629222228263" lon="12.188954194095109"><ele>354.6666666666667</ele><time>2026-04-30T12:02:15.999Z</time></trkpt><trkpt lat="43.146249848943576" lon="12.188848990798743"><ele>353.83333333333337</ele><time>2026-04-30T12:02:16.999Z</time></trkpt><trkpt lat="43.14620055457659" lon="12.18874803363877"><ele>353.0</ele><time>2026-04-30T12:02:17.999Z</time></trkpt><trkpt lat="43.14613190606908" lon="12.188661138165493"><ele>353.0</ele><time>2026-04-30T12:02:18.999Z</time></trkpt><trkpt lat="43.146078976864636" lon="12.188578653660773"><ele>353.0</ele><time>2026-04-30T12:02:19.999Z</time></trkpt><trkpt lat="43.14602527857211" lon="12.18849618842372"><ele>353.0</ele><time>2026-04-30T12:02:20.999Z</time></trkpt><trkpt lat="43.145969741448376" lon="12.188415669447577"><ele>353.0</ele><time>2026-04-30T12:02:21.999Z</time></trkpt><trkpt lat="43.145916111703414" lon="12.188323112541736"><ele>353.0</ele><time>2026-04-30T12:02:22.999Z</time></trkpt><trkpt lat="43.14583878728814" lon="12.18823996731522"><ele>353.0</ele><time>2026-04-30T12:02:23.999Z</time></trkpt><trkpt lat="43.145777918941995" lon="12.188152323018862"><ele>354.2</ele><time>2026-04-30T12:02:24.999Z</time></trkpt><trkpt lat="43.145706689553926" lon="12.188058033213123"><ele>355.4</ele><time>2026-04-30T12:02:25.999Z</time></trkpt><trkpt lat="43.14562808544578" lon="12.18795556104189"><ele>356.59999999999997</ele><time>2026-04-30T12:02:26.999Z</time></trkpt><trkpt lat="43.14553487604195" lon="12.187844386809228"><ele>357.79999999999995</ele><time>2026-04-30T12:02:27.999Z</time></trkpt><trkpt lat="43.14545239166963" lon="12.18776089065056"><ele>359.0</ele><time>2026-04-30T12:02:28.999Z</time></trkpt><trkpt lat="43.14538763102383" lon="12.187699303887996"><ele>359.0</ele><time>2026-04-30T12:02:29.999Z</time></trkpt><trkpt lat="43.145327421898216" lon="12.187651047500026"><ele>359.0</ele><time>2026-04-30T12:02:30.999Z</time></trkpt><trkpt lat="43.145250316127154" lon="12.187627080817052"><ele>359.0</ele><time>2026-04-30T12:02:31.999Z</time></trkpt><trkpt lat="43.14518096870172" lon="12.187580575838567"><ele>359.0</ele><time>2026-04-30T12:02:32.999Z</time></trkpt><trkpt lat="43.14510105606402" lon="12.187548690937103"><ele>359.0</ele><time>2026-04-30T12:02:33.999Z</time></trkpt><trkpt lat="43.145024627824505" lon="12.18754253140613"><ele>359.0</ele><time>2026-04-30T12:02:34.999Z</time></trkpt><trkpt lat="43.14489204404927" lon="12.187589174395276"><ele>358.0</ele><time>2026-04-30T12:02:36.999Z</time></trkpt><trkpt lat="43.144805517772255" lon="12.187623271461051"><ele>357.0</ele><time>2026-04-30T12:02:37.999Z</time></trkpt><trkpt lat="43.1447165174898" lon="12.187672197713976"><ele>356.0</ele><time>2026-04-30T12:02:38.999Z</time></trkpt><trkpt lat="43.14464463029881" lon="12.187724759640053"><ele>355.0</ele><time>2026-04-30T12:02:39.999Z</time></trkpt><trkpt lat="43.14458177483956" lon="12.187735331875286"><ele>354.0</ele><time>2026-04-30T12:02:40.999Z</time></trkpt><trkpt lat="43.14451787602656" lon="12.18774623560606"><ele>353.0</ele><time>2026-04-30T12:02:41.999Z</time></trkpt><trkpt lat="43.14440579281091" lon="12.187740826417466"><ele>353.0</ele><time>2026-04-30T12:02:43.999Z</time></trkpt><trkpt lat="43.144333305884736" lon="12.187737210879412"><ele>353.0</ele><time>2026-04-30T12:02:45.999Z</time></trkpt><trkpt lat="43.14433513346507" lon="12.187456575183324"><ele>353.0</ele><time>2026-04-30T12:02:47.999Z</time></trkpt><trkpt lat="43.144341593214754" lon="12.187307244005941"><ele>353.0</ele><time>2026-04-30T12:02:48.999Z</time></trkpt><trkpt lat="43.144339460894116" lon="12.187123191232093"><ele>354.4</ele><time>2026-04-30T12:02:49.999Z</time></trkpt><trkpt lat="43.1443487935573" lon="12.186941404805403"><ele>355.79999999999995</ele><time>2026-04-30T12:02:50.999Z</time></trkpt><trkpt lat="43.144346799021214" lon="12.186809555220858"><ele>357.2</ele><time>2026-04-30T12:02:51.999Z</time></trkpt><trkpt lat="43.14433747771794" lon="12.186670941016622"><ele>358.6</ele><time>2026-04-30T12:02:52.999Z</time></trkpt><trkpt lat="43.14433486200974" lon="12.186565206329522"><ele>360.0</ele><time>2026-04-30T12:02:53.999Z</time></trkpt><trkpt lat="43.14432520609745" lon="12.186456942756784"><ele>361.6666666666667</ele><time>2026-04-30T12:02:55.999Z</time></trkpt><trkpt lat="43.14425682937582" lon="12.186421233472528"><ele>363.3333333333333</ele><time>2026-04-30T12:02:57.999Z</time></trkpt><trkpt lat="43.144313549712265" lon="12.186290670070992"><ele>365.0</ele><time>2026-04-30T12:03:01.999Z</time></trkpt><trkpt lat="43.14436020194069" lon="12.186213589154628"><ele>366.66666666666663</ele><time>2026-04-30T12:03:02.999Z</time></trkpt><trkpt lat="43.14436661335821" lon="12.18607662593821"><ele>368.3333333333333</ele><time>2026-04-30T12:03:04.999Z</time></trkpt><trkpt lat="43.144361359668686" lon="12.185968935453724"><ele>370.0</ele><time>2026-04-30T12:03:05.999Z</time></trkpt><trkpt lat="43.144349829858555" lon="12.185851081103584"><ele>370.0</ele><time>2026-04-30T12:03:06.999Z</time></trkpt><trkpt lat="43.144339584919784" lon="12.18573066014603"><ele>370.0</ele><time>2026-04-30T12:03:07.999Z</time></trkpt><trkpt lat="43.14431064550014" lon="12.185610780783223"><ele>370.0</ele><time>2026-04-30T12:03:08.999Z</time></trkpt><trkpt lat="43.14426797120156" lon="12.185492314200022"><ele>370.0</ele><time>2026-04-30T12:03:09.999Z</time></trkpt><trkpt lat="43.14424347871399" lon="12.185378388493797"><ele>370.0</ele><time>2026-04-30T12:03:10.999Z</time></trkpt><trkpt lat="43.14421396032002" lon="12.185296143745136"><ele>370.0</ele><time>2026-04-30T12:03:11.999Z</time></trkpt><trkpt lat="43.144182457006906" lon="12.18520004806039"><ele>372.16666666666663</ele><time>2026-04-30T12:03:12.999Z</time></trkpt><trkpt lat="43.14414463159871" lon="12.185087394454124"><ele>374.3333333333333</ele><time>2026-04-30T12:03:13.999Z</time></trkpt><trkpt lat="43.14411633822036" lon="12.184973716560005"><ele>376.5</ele><time>2026-04-30T12:03:14.999Z</time></trkpt><trkpt lat="43.14410593695559" lon="12.184861560157517"><ele>378.6666666666667</ele><time>2026-04-30T12:03:15.999Z</time></trkpt><trkpt lat="43.14409674874728" lon="12.184756578373793"><ele>380.83333333333337</ele><time>2026-04-30T12:03:16.999Z</time></trkpt><trkpt lat="43.14407305245222" lon="12.18461154276092"><ele>383.0</ele><time>2026-04-30T12:03:18.999Z</time></trkpt><trkpt lat="43.1440117351174" lon="12.184463313228019"><ele>383.6666666666667</ele><time>2026-04-30T12:03:20.999Z</time></trkpt><trkpt lat="43.14396878128889" lon="12.184377186814272"><ele>384.33333333333337</ele><time>2026-04-30T12:03:21.999Z</time></trkpt><trkpt lat="43.14392482393983" lon="12.184295331214905"><ele>385.0</ele><time>2026-04-30T12:03:22.999Z</time></trkpt><trkpt lat="43.14388239937428" lon="12.184214722293387"><ele>385.6666666666667</ele><time>2026-04-30T12:03:23.998Z</time></trkpt><trkpt lat="43.143838812114986" lon="12.184142983732636"><ele>386.3333333333333</ele><time>2026-04-30T12:03:24.998Z</time></trkpt><trkpt lat="43.14379845733105" lon="12.184070226388785"><ele>387.0</ele><time>2026-04-30T12:03:25.998Z</time></trkpt><trkpt lat="43.1437064119351" lon="12.183983748647154"><ele>390.40000000000003</ele><time>2026-04-30T12:03:28Z</time></trkpt><trkpt lat="43.14361492927587" lon="12.183859989754923"><ele>393.8</ele><time>2026-04-30T12:03:30Z</time></trkpt><trkpt lat="43.143553582924525" lon="12.183787089029343"><ele>397.2</ele><time>2026-04-30T12:03:31Z</time></trkpt><trkpt lat="43.14349721573422" lon="12.183725717333168"><ele>400.6</ele><time>2026-04-30T12:03:32Z</time></trkpt><trkpt lat="43.14341117226629" lon="12.183621996007448"><ele>404.0</ele><time>2026-04-30T12:03:34Z</time></trkpt><trkpt lat="43.14336185719211" lon="12.183560931864372"><ele>404.0</ele><time>2026-04-30T12:03:35Z</time></trkpt><trkpt lat="43.14327217385846" lon="12.183458602862512"><ele>404.0</ele><time>2026-04-30T12:03:37Z</time></trkpt><trkpt lat="43.143192183362466" lon="12.183356659579072"><ele>404.0</ele><time>2026-04-30T12:03:39Z</time></trkpt><trkpt lat="43.14311524138841" lon="12.183280839333221"><ele>404.0</ele><time>2026-04-30T12:03:41Z</time></trkpt><trkpt lat="43.14303363589141" lon="12.183240847687145"><ele>404.0</ele><time>2026-04-30T12:03:43Z</time></trkpt><trkpt lat="43.14297383009595" lon="12.183204145224439"><ele>405.8333333333333</ele><time>2026-04-30T12:03:44Z</time></trkpt><trkpt lat="43.14289713011631" lon="12.18316414918157"><ele>407.66666666666663</ele><time>2026-04-30T12:03:45Z</time></trkpt><trkpt lat="43.14280755138312" lon="12.183139663934924"><ele>409.5</ele><time>2026-04-30T12:03:46Z</time></trkpt><trkpt lat="43.142727590422695" lon="12.183115640803996"><ele>411.33333333333337</ele><time>2026-04-30T12:03:47Z</time></trkpt><trkpt lat="43.14266286148296" lon="12.183096279002598"><ele>413.1666666666667</ele><time>2026-04-30T12:03:48Z</time></trkpt><trkpt lat="43.142586598632654" lon="12.183068530710457"><ele>415.0</ele><time>2026-04-30T12:03:49Z</time></trkpt><trkpt lat="43.14250660217945" lon="12.183028746283687"><ele>415.00000000000006</ele><time>2026-04-30T12:03:50Z</time></trkpt><trkpt lat="43.14243375707953" lon="12.183001856465788"><ele>415.0</ele><time>2026-04-30T12:03:51Z</time></trkpt><trkpt lat="43.142365379077695" lon="12.182976344608818"><ele>415.0</ele><time>2026-04-30T12:03:52Z</time></trkpt><trkpt lat="43.14226946692835" lon="12.182943014964021"><ele>415.0</ele><time>2026-04-30T12:03:54Z</time></trkpt><trkpt lat="43.14220331134392" lon="12.182892367894667"><ele>415.00000000000006</ele><time>2026-04-30T12:03:56Z</time></trkpt><trkpt lat="43.14213998369772" lon="12.182853634031666"><ele>415.0</ele><time>2026-04-30T12:03:58Z</time></trkpt><trkpt lat="43.142038966510235" lon="12.18278524492915"><ele>413.75</ele><time>2026-04-30T12:04:01Z</time></trkpt><trkpt lat="43.14196927261235" lon="12.182737501207647"><ele>412.5</ele><time>2026-04-30T12:04:04Z</time></trkpt><trkpt lat="43.1417451669551" lon="12.18267262589382"><ele>411.25</ele><time>2026-04-30T12:04:07Z</time></trkpt><trkpt lat="43.14165702604901" lon="12.18267570385743"><ele>410.0</ele><time>2026-04-30T12:04:09.999Z</time></trkpt><trkpt lat="43.14157007726058" lon="12.182683146141326"><ele>410.3333333333333</ele><time>2026-04-30T12:04:12.999Z</time></trkpt><trkpt lat="43.14150380989756" lon="12.182663030969323"><ele>410.66666666666663</ele><time>2026-04-30T12:04:14.999Z</time></trkpt><trkpt lat="43.141423942517456" lon="12.182648258244202"><ele>411.0</ele><time>2026-04-30T12:04:16.999Z</time></trkpt><trkpt lat="43.141340246776934" lon="12.182658810136669"><ele>411.33333333333337</ele><time>2026-04-30T12:04:18.999Z</time></trkpt><trkpt lat="43.14124071140972" lon="12.182702232540905"><ele>411.6666666666667</ele><time>2026-04-30T12:04:20.999Z</time></trkpt><trkpt lat="43.14114836573631" lon="12.182734908759416"><ele>412.0</ele><time>2026-04-30T12:04:21.999Z</time></trkpt><trkpt lat="43.141072527633014" lon="12.182767385541236"><ele>412.0</ele><time>2026-04-30T12:04:22.999Z</time></trkpt><trkpt lat="43.140998262436575" lon="12.182792103861074"><ele>412.0</ele><time>2026-04-30T12:04:23.999Z</time></trkpt><trkpt lat="43.140918684176" lon="12.182731892437554"><ele>412.0</ele><time>2026-04-30T12:04:24.999Z</time></trkpt><trkpt lat="43.14086743079304" lon="12.182791017167235"><ele>412.0</ele><time>2026-04-30T12:04:26.999Z</time></trkpt><trkpt lat="43.140769242140166" lon="12.182824421816504"><ele>412.0</ele><time>2026-04-30T12:04:27.999Z</time></trkpt><trkpt lat="43.1406317299596" lon="12.182888310820147"><ele>412.6666666666667</ele><time>2026-04-30T12:04:28.999Z</time></trkpt><trkpt lat="43.14044929090633" lon="12.182957455820393"><ele>413.33333333333337</ele><time>2026-04-30T12:04:29.999Z</time></trkpt><trkpt lat="43.140274603801636" lon="12.183010518219673"><ele>414.0</ele><time>2026-04-30T12:04:30.999Z</time></trkpt><trkpt lat="43.14012675054261" lon="12.18304755720729"><ele>414.0</ele><time>2026-04-30T12:04:31.999Z</time></trkpt><trkpt lat="43.1399632538819" lon="12.18304683885577"><ele>414.0</ele><time>2026-04-30T12:04:32.999Z</time></trkpt><trkpt lat="43.13982309641162" lon="12.183027794957347"><ele>414.0</ele><time>2026-04-30T12:04:33.999Z</time></trkpt><trkpt lat="43.139699817387914" lon="12.183036910401096"><ele>414.0</ele><time>2026-04-30T12:04:34.999Z</time></trkpt><trkpt lat="43.13957392800451" lon="12.18307251594059"><ele>414.0</ele><time>2026-04-30T12:04:35.999Z</time></trkpt><trkpt lat="43.13944776250781" lon="12.183096134392665"><ele>414.0</ele><time>2026-04-30T12:04:36.999Z</time></trkpt><trkpt lat="43.13930943239096" lon="12.18309183645235"><ele>414.0</ele><time>2026-04-30T12:04:37.999Z</time></trkpt><trkpt lat="43.13915581449511" lon="12.183092725652822"><ele>414.0</ele><time>2026-04-30T12:04:38.999Z</time></trkpt><trkpt lat="43.139002289292264" lon="12.18312066089275"><ele>414.0</ele><time>2026-04-30T12:04:39.999Z</time></trkpt><trkpt lat="43.138864352869035" lon="12.183163460423671"><ele>414.0</ele><time>2026-04-30T12:04:40.999Z</time></trkpt><trkpt lat="43.13871177361295" lon="12.183161943231905"><ele>414.0</ele><time>2026-04-30T12:04:41.999Z</time></trkpt><trkpt lat="43.138540268262325" lon="12.18312503360191"><ele>414.0</ele><time>2026-04-30T12:04:42.999Z</time></trkpt><trkpt lat="43.13839130046521" lon="12.183088364643469"><ele>414.0</ele><time>2026-04-30T12:04:43.999Z</time></trkpt><trkpt lat="43.13825650959626" lon="12.183060812579496"><ele>414.0</ele><time>2026-04-30T12:04:44.999Z</time></trkpt><trkpt lat="43.13812921530773" lon="12.183039717935285"><ele>414.0</ele><time>2026-04-30T12:04:45.999Z</time></trkpt><trkpt lat="43.13799998576281" lon="12.183029993407517"><ele>412.6</ele><time>2026-04-30T12:04:46.999Z</time></trkpt><trkpt lat="43.13787948485224" lon="12.183028062743475"><ele>411.2</ele><time>2026-04-30T12:04:47.999Z</time></trkpt><trkpt lat="43.137785638233765" lon="12.183018876701102"><ele>409.8</ele><time>2026-04-30T12:04:48.999Z</time></trkpt><trkpt lat="43.137697786694865" lon="12.182995632849357"><ele>408.40000000000003</ele><time>2026-04-30T12:04:49.999Z</time></trkpt><trkpt lat="43.137605182848745" lon="12.182950259454415"><ele>407.0</ele><time>2026-04-30T12:04:50.999Z</time></trkpt><trkpt lat="43.13751949792435" lon="12.182877478153461"><ele>407.0</ele><time>2026-04-30T12:04:51.999Z</time></trkpt><trkpt lat="43.1374282322821" lon="12.182805409082352"><ele>407.0</ele><time>2026-04-30T12:04:52.999Z</time></trkpt><trkpt lat="43.13732990493614" lon="12.182749081636599"><ele>407.0</ele><time>2026-04-30T12:04:53.999Z</time></trkpt><trkpt lat="43.137228852877016" lon="12.182716256247717"><ele>407.0</ele><time>2026-04-30T12:04:54.999Z</time></trkpt><trkpt lat="43.13712892798827" lon="12.182710572810741"><ele>407.0</ele><time>2026-04-30T12:04:55.999Z</time></trkpt><trkpt lat="43.13702343389147" lon="12.182714806060629"><ele>405.20000000000005</ele><time>2026-04-30T12:04:56.999Z</time></trkpt><trkpt lat="43.13690560971607" lon="12.182728674630946"><ele>403.4</ele><time>2026-04-30T12:04:57.999Z</time></trkpt><trkpt lat="43.136790579148496" lon="12.182727047148495"><ele>401.6</ele><time>2026-04-30T12:04:58.999Z</time></trkpt><trkpt lat="43.13669015256437" lon="12.182723833766378"><ele>399.79999999999995</ele><time>2026-04-30T12:04:59.999Z</time></trkpt><trkpt lat="43.13658793431748" lon="12.182713199457122"><ele>398.0</ele><time>2026-04-30T12:05:00.999Z</time></trkpt><trkpt lat="43.13647645164476" lon="12.182676846133402"><ele>396.75</ele><time>2026-04-30T12:05:01.999Z</time></trkpt><trkpt lat="43.13634879685622" lon="12.182610891578339"><ele>395.5</ele><time>2026-04-30T12:05:02.999Z</time></trkpt><trkpt lat="43.13623197710959" lon="12.182552383490412"><ele>394.25</ele><time>2026-04-30T12:05:03.999Z</time></trkpt><trkpt lat="43.1361162439172" lon="12.182505646094421"><ele>393.0</ele><time>2026-04-30T12:05:04.999Z</time></trkpt><trkpt lat="43.1360036754263" lon="12.182461472872475"><ele>393.0</ele><time>2026-04-30T12:05:05.999Z</time></trkpt><trkpt lat="43.13590010191659" lon="12.182414116693467"><ele>393.0</ele><time>2026-04-30T12:05:06.999Z</time></trkpt><trkpt lat="43.135814416971726" lon="12.182365978421425"><ele>393.0</ele><time>2026-04-30T12:05:07.999Z</time></trkpt><trkpt lat="43.13574560533591" lon="12.182316246622861"><ele>393.0</ele><time>2026-04-30T12:05:08.999Z</time></trkpt><trkpt lat="43.13568728292207" lon="12.182266647092526"><ele>393.0</ele><time>2026-04-30T12:05:09.999Z</time></trkpt><trkpt lat="43.13562025236487" lon="12.18221229026925"><ele>393.0</ele><time>2026-04-30T12:05:10.999Z</time></trkpt><trkpt lat="43.13552133534951" lon="12.18215944146148"><ele>392.0</ele><time>2026-04-30T12:05:11.999Z</time></trkpt><trkpt lat="43.13540281537993" lon="12.182070513274704"><ele>391.0</ele><time>2026-04-30T12:05:12.999Z</time></trkpt><trkpt lat="43.13527280833599" lon="12.181934445937383"><ele>390.0</ele><time>2026-04-30T12:05:13.999Z</time></trkpt><trkpt lat="43.13512438618895" lon="12.18176042183015"><ele>390.0</ele><time>2026-04-30T12:05:14.999Z</time></trkpt><trkpt lat="43.13497232765597" lon="12.181613957811043"><ele>390.0</ele><time>2026-04-30T12:05:15.999Z</time></trkpt><trkpt lat="43.134827077436825" lon="12.181487028630773"><ele>390.0</ele><time>2026-04-30T12:05:16.999Z</time></trkpt><trkpt lat="43.13469578815852" lon="12.181381443988176"><ele>391.0</ele><time>2026-04-30T12:05:17.999Z</time></trkpt><trkpt lat="43.1345506047551" lon="12.181298484940271"><ele>392.0</ele><time>2026-04-30T12:05:18.999Z</time></trkpt><trkpt lat="43.13438681479411" lon="12.181223050946729"><ele>393.0</ele><time>2026-04-30T12:05:19.999Z</time></trkpt><trkpt lat="43.134226566949344" lon="12.18113870075288"><ele>393.0</ele><time>2026-04-30T12:05:20.999Z</time></trkpt><trkpt lat="43.1340716807721" lon="12.181055678129644"><ele>393.0</ele><time>2026-04-30T12:05:21.998Z</time></trkpt><trkpt lat="43.1339036106491" lon="12.180967341196379"><ele>393.0</ele><time>2026-04-30T12:05:22.998Z</time></trkpt><trkpt lat="43.133716943486995" lon="12.180874629089484"><ele>391.0</ele><time>2026-04-30T12:05:23.998Z</time></trkpt><trkpt lat="43.1335412856248" lon="12.180786897082287"><ele>389.0</ele><time>2026-04-30T12:05:24.998Z</time></trkpt><trkpt lat="43.13338098538319" lon="12.180709342381286"><ele>387.0</ele><time>2026-04-30T12:05:25.998Z</time></trkpt><trkpt lat="43.13323004168125" lon="12.180640031884202"><ele>386.66666666666663</ele><time>2026-04-30T12:05:26.998Z</time></trkpt><trkpt lat="43.13308340824597" lon="12.180579245655245"><ele>386.3333333333333</ele><time>2026-04-30T12:05:27.998Z</time></trkpt><trkpt lat="43.13292916986965" lon="12.180518310858384"><ele>386.0</ele><time>2026-04-30T12:05:28.998Z</time></trkpt><trkpt lat="43.13276119048957" lon="12.180447744363912"><ele>386.0</ele><time>2026-04-30T12:05:29.998Z</time></trkpt><trkpt lat="43.132587100282755" lon="12.180377832710054"><ele>386.0</ele><time>2026-04-30T12:05:30.998Z</time></trkpt><trkpt lat="43.13242843619298" lon="12.180312973800538"><ele>386.0</ele><time>2026-04-30T12:05:31.998Z</time></trkpt><trkpt lat="43.13228545196988" lon="12.180247373316874"><ele>385.25</ele><time>2026-04-30T12:05:32.998Z</time></trkpt><trkpt lat="43.13215738215006" lon="12.180180283709872"><ele>384.5</ele><time>2026-04-30T12:05:34Z</time></trkpt><trkpt lat="43.13204591565501" lon="12.180116820561702"><ele>383.75</ele><time>2026-04-30T12:05:35Z</time></trkpt><trkpt lat="43.13193982881695" lon="12.180054990346905"><ele>383.0</ele><time>2026-04-30T12:05:36Z</time></trkpt><trkpt lat="43.131825991550535" lon="12.18001104648669"><ele>383.0</ele><time>2026-04-30T12:05:37Z</time></trkpt><trkpt lat="43.131716462453376" lon="12.179984899043271"><ele>383.0</ele><time>2026-04-30T12:05:38Z</time></trkpt><trkpt lat="43.131612469115375" lon="12.179954217612751"><ele>383.0</ele><time>2026-04-30T12:05:39Z</time></trkpt><trkpt lat="43.131528820780446" lon="12.179886877839415"><ele>383.0</ele><time>2026-04-30T12:05:40Z</time></trkpt><trkpt lat="43.13143516502059" lon="12.179829058790887"><ele>383.0</ele><time>2026-04-30T12:05:41Z</time></trkpt><trkpt lat="43.13130159713179" lon="12.17971943589888"><ele>381.6666666666667</ele><time>2026-04-30T12:05:42Z</time></trkpt><trkpt lat="43.131136946203874" lon="12.179642861950505"><ele>380.3333333333333</ele><time>2026-04-30T12:05:43Z</time></trkpt><trkpt lat="43.130930738896126" lon="12.179581086221207"><ele>379.0</ele><time>2026-04-30T12:05:44Z</time></trkpt><trkpt lat="43.130695446366886" lon="12.179494895932901"><ele>379.0</ele><time>2026-04-30T12:05:45Z</time></trkpt><trkpt lat="43.13044408631558" lon="12.179399498601969"><ele>379.0</ele><time>2026-04-30T12:05:46Z</time></trkpt><trkpt lat="43.1302087514916" lon="12.179305356059169"><ele>379.0</ele><time>2026-04-30T12:05:47Z</time></trkpt><trkpt lat="43.130015320281196" lon="12.179220755474093"><ele>379.0</ele><time>2026-04-30T12:05:48Z</time></trkpt><trkpt lat="43.12983943046314" lon="12.17912790300691"><ele>379.0</ele><time>2026-04-30T12:05:49Z</time></trkpt><trkpt lat="43.12966828090718" lon="12.179039022183403"><ele>377.0</ele><time>2026-04-30T12:05:50Z</time></trkpt><trkpt lat="43.12948497358592" lon="12.178972252664932"><ele>375.0</ele><time>2026-04-30T12:05:51Z</time></trkpt><trkpt lat="43.129308194254094" lon="12.17888073266144"><ele>373.0</ele><time>2026-04-30T12:05:52Z</time></trkpt><trkpt lat="43.1291094507154" lon="12.178771395626084"><ele>374.0</ele><time>2026-04-30T12:05:53Z</time></trkpt><trkpt lat="43.128924936415466" lon="12.178668129083094"><ele>375.0</ele><time>2026-04-30T12:05:54Z</time></trkpt><trkpt lat="43.128756560780296" lon="12.178580480586456"><ele>376.0</ele><time>2026-04-30T12:05:55Z</time></trkpt><trkpt lat="43.12861648461949" lon="12.178508909519792"><ele>376.0</ele><time>2026-04-30T12:05:56Z</time></trkpt><trkpt lat="43.12848489709892" lon="12.178441283274834"><ele>376.0</ele><time>2026-04-30T12:05:57Z</time></trkpt><trkpt lat="43.12836223655153" lon="12.178378251074152"><ele>376.0</ele><time>2026-04-30T12:05:58Z</time></trkpt><trkpt lat="43.128241094177284" lon="12.178300109684729"><ele>376.0</ele><time>2026-04-30T12:05:59Z</time></trkpt><trkpt lat="43.128122219531676" lon="12.178192614574693"><ele>375.25</ele><time>2026-04-30T12:06:00Z</time></trkpt><trkpt lat="43.12801185216468" lon="12.178074562281699"><ele>374.5</ele><time>2026-04-30T12:06:01Z</time></trkpt><trkpt lat="43.12791197068376" lon="12.177974629992804"><ele>373.75</ele><time>2026-04-30T12:06:02Z</time></trkpt><trkpt lat="43.127833855849204" lon="12.177852524726209"><ele>373.0</ele><time>2026-04-30T12:06:03Z</time></trkpt><trkpt lat="43.127742684422316" lon="12.17774759806402"><ele>373.0</ele><time>2026-04-30T12:06:04Z</time></trkpt><trkpt lat="43.12767689371699" lon="12.177632433326826"><ele>373.0</ele><time>2026-04-30T12:06:05Z</time></trkpt><trkpt lat="43.12760464175485" lon="12.17753004549028"><ele>373.0</ele><time>2026-04-30T12:06:06Z</time></trkpt><trkpt lat="43.127537537889964" lon="12.177438447388607"><ele>373.0</ele><time>2026-04-30T12:06:07Z</time></trkpt><trkpt lat="43.12747489090584" lon="12.17735379656256"><ele>373.0</ele><time>2026-04-30T12:06:08Z</time></trkpt><trkpt lat="43.12741944733078" lon="12.177288556374565"><ele>373.2857142857143</ele><time>2026-04-30T12:06:09Z</time></trkpt><trkpt lat="43.127361650069524" lon="12.177248834734476"><ele>373.57142857142856</ele><time>2026-04-30T12:06:09.999Z</time></trkpt><trkpt lat="43.12729302140854" lon="12.177242145502513"><ele>373.8571428571429</ele><time>2026-04-30T12:06:10.999Z</time></trkpt><trkpt lat="43.12722542109168" lon="12.177258703031546"><ele>374.1428571428571</ele><time>2026-04-30T12:06:11.999Z</time></trkpt><trkpt lat="43.12716784005502" lon="12.177306935247293"><ele>374.4285714285714</ele><time>2026-04-30T12:06:12.999Z</time></trkpt><trkpt lat="43.12711394921524" lon="12.177409073792958"><ele>374.7142857142857</ele><time>2026-04-30T12:06:14.999Z</time></trkpt><trkpt lat="43.12704225860221" lon="12.17744949960999"><ele>375.0</ele><time>2026-04-30T12:06:18.999Z</time></trkpt><trkpt lat="43.12693496914894" lon="12.177346953432522"><ele>373.6666666666667</ele><time>2026-04-30T12:06:22.999Z</time></trkpt><trkpt lat="43.126817447688836" lon="12.177336048744092"><ele>372.3333333333333</ele><time>2026-04-30T12:06:24.999Z</time></trkpt><trkpt lat="43.126732070449115" lon="12.17733863724323"><ele>371.0</ele><time>2026-04-30T12:06:25.999Z</time></trkpt><trkpt lat="43.12665861952202" lon="12.177339737287584"><ele>369.66666666666663</ele><time>2026-04-30T12:06:26.999Z</time></trkpt><trkpt lat="43.126585628540646" lon="12.177342378738096"><ele>368.3333333333333</ele><time>2026-04-30T12:06:27.999Z</time></trkpt><trkpt lat="43.12650812510021" lon="12.177346329611286"><ele>367.0</ele><time>2026-04-30T12:06:28.999Z</time></trkpt><trkpt lat="43.12639131607772" lon="12.17733197605152"><ele>371.0</ele><time>2026-04-30T12:06:30.999Z</time></trkpt><trkpt lat="43.12631657165501" lon="12.17730867992366"><ele>375.0</ele><time>2026-04-30T12:06:31.999Z</time></trkpt><trkpt lat="43.12623198011184" lon="12.177280931141796"><ele>379.0</ele><time>2026-04-30T12:06:32.999Z</time></trkpt><trkpt lat="43.12613874675827" lon="12.17725166322343"><ele>383.0</ele><time>2026-04-30T12:06:33.999Z</time></trkpt><trkpt lat="43.12604049467672" lon="12.177229605708987"><ele>387.0</ele><time>2026-04-30T12:06:34.999Z</time></trkpt><trkpt lat="43.125936471613954" lon="12.177208101090711"><ele>387.0</ele><time>2026-04-30T12:06:35.999Z</time></trkpt><trkpt lat="43.12585331758851" lon="12.177186705680132"><ele>387.0</ele><time>2026-04-30T12:06:36.999Z</time></trkpt><trkpt lat="43.12578802732364" lon="12.177169592167049"><ele>387.0</ele><time>2026-04-30T12:06:37.999Z</time></trkpt><trkpt lat="43.12571943464133" lon="12.177123372659125"><ele>387.0</ele><time>2026-04-30T12:06:38.999Z</time></trkpt><trkpt lat="43.12562953939333" lon="12.177070199017674"><ele>387.0</ele><time>2026-04-30T12:06:39.999Z</time></trkpt><trkpt lat="43.1255122267579" lon="12.177011579268544"><ele>390.40000000000003</ele><time>2026-04-30T12:06:40.999Z</time></trkpt><trkpt lat="43.12540706602198" lon="12.176966351300823"><ele>393.8</ele><time>2026-04-30T12:06:41.999Z</time></trkpt><trkpt lat="43.125298451007886" lon="12.176924180218895"><ele>397.2</ele><time>2026-04-30T12:06:42.999Z</time></trkpt><trkpt lat="43.125199978854646" lon="12.17687643180437"><ele>400.6</ele><time>2026-04-30T12:06:43.999Z</time></trkpt><trkpt lat="43.125093356197254" lon="12.176835914922055"><ele>404.0</ele><time>2026-04-30T12:06:44.999Z</time></trkpt><trkpt lat="43.12498704564862" lon="12.17679480590882"><ele>405.6</ele><time>2026-04-30T12:06:45.999Z</time></trkpt><trkpt lat="43.12489590242164" lon="12.176740505373385"><ele>407.2</ele><time>2026-04-30T12:06:46.999Z</time></trkpt><trkpt lat="43.124803189284215" lon="12.17668061167"><ele>408.8</ele><time>2026-04-30T12:06:47.999Z</time></trkpt><trkpt lat="43.1246958092109" lon="12.176632101839433"><ele>410.40000000000003</ele><time>2026-04-30T12:06:48.999Z</time></trkpt><trkpt lat="43.12459688460487" lon="12.176578113872873"><ele>412.0</ele><time>2026-04-30T12:06:49.999Z</time></trkpt><trkpt lat="43.124521249748334" lon="12.176537999344763"><ele>411.40000000000003</ele><time>2026-04-30T12:06:50.999Z</time></trkpt><trkpt lat="43.124406251578336" lon="12.176467198463051"><ele>410.8</ele><time>2026-04-30T12:06:52.999Z</time></trkpt><trkpt lat="43.124296818097726" lon="12.176385505113235"><ele>410.2</ele><time>2026-04-30T12:06:54.999Z</time></trkpt><trkpt lat="43.12424506068742" lon="12.176299324671039"><ele>409.6</ele><time>2026-04-30T12:06:55.999Z</time></trkpt><trkpt lat="43.12417837237884" lon="12.176220310651916"><ele>409.0</ele><time>2026-04-30T12:06:56.999Z</time></trkpt><trkpt lat="43.124110518490504" lon="12.176181875203408"><ele>408.33333333333337</ele><time>2026-04-30T12:06:57.999Z</time></trkpt><trkpt lat="43.124035824554234" lon="12.176153136530775"><ele>407.6666666666667</ele><time>2026-04-30T12:06:58.999Z</time></trkpt><trkpt lat="43.12396111464795" lon="12.17611983882212"><ele>407.0</ele><time>2026-04-30T12:06:59.999Z</time></trkpt><trkpt lat="43.12387681283311" lon="12.176096157947223"><ele>406.33333333333337</ele><time>2026-04-30T12:07:00.999Z</time></trkpt><trkpt lat="43.12378613635622" lon="12.176084394187583"><ele>405.6666666666667</ele><time>2026-04-30T12:07:01.999Z</time></trkpt><trkpt lat="43.12370568357354" lon="12.176074759739278"><ele>405.0</ele><time>2026-04-30T12:07:02.999Z</time></trkpt><trkpt lat="43.12364274503267" lon="12.176070431313487"><ele>405.0</ele><time>2026-04-30T12:07:03.999Z</time></trkpt><trkpt lat="43.12353225530468" lon="12.176092800971942"><ele>405.0</ele><time>2026-04-30T12:07:05.999Z</time></trkpt><trkpt lat="43.1234394985919" lon="12.176169506991306"><ele>405.0</ele><time>2026-04-30T12:07:07.999Z</time></trkpt><trkpt lat="43.12341818740649" lon="12.176259570998539"><ele>405.0</ele><time>2026-04-30T12:07:09.999Z</time></trkpt><trkpt lat="43.12341418678943" lon="12.176371276990077"><ele>405.0</ele><time>2026-04-30T12:07:11.999Z</time></trkpt><trkpt lat="43.12342239514886" lon="12.176467613996623"><ele>405.0</ele><time>2026-04-30T12:07:15.999Z</time></trkpt><trkpt lat="43.12334996775922" lon="12.176511705144527"><ele>405.0</ele><time>2026-04-30T12:07:17.999Z</time></trkpt><trkpt lat="43.12326222598185" lon="12.17650547025274"><ele>405.0</ele><time>2026-04-30T12:07:19.999Z</time></trkpt><trkpt lat="43.12317778559649" lon="12.176539321080936"><ele>405.0</ele><time>2026-04-30T12:07:21.998Z</time></trkpt><trkpt lat="43.123095452513205" lon="12.176570974929037"><ele>405.0</ele><time>2026-04-30T12:07:23.998Z</time></trkpt><trkpt lat="43.12301584493774" lon="12.176557627869007"><ele>405.0</ele><time>2026-04-30T12:07:25.998Z</time></trkpt><trkpt lat="43.12293928820576" lon="12.176531249457136"><ele>405.0</ele><time>2026-04-30T12:07:27.998Z</time></trkpt><trkpt lat="43.12285153881051" lon="12.176518274146972"><ele>402.6</ele><time>2026-04-30T12:07:29.998Z</time></trkpt><trkpt lat="43.12276334469571" lon="12.176519519290768"><ele>400.2</ele><time>2026-04-30T12:07:31.998Z</time></trkpt><trkpt lat="43.12269705697241" lon="12.176487933387453"><ele>397.79999999999995</ele><time>2026-04-30T12:07:33.998Z</time></trkpt><trkpt lat="43.12260601671335" lon="12.176411679625524"><ele>395.4</ele><time>2026-04-30T12:07:35.998Z</time></trkpt><trkpt lat="43.122518074371534" lon="12.176374168724974"><ele>393.0</ele><time>2026-04-30T12:07:37.998Z</time></trkpt><trkpt lat="43.122416527402706" lon="12.176376540284293"><ele>390.79999999999995</ele><time>2026-04-30T12:07:40Z</time></trkpt><trkpt lat="43.12229544866654" lon="12.176386046858408"><ele>388.6</ele><time>2026-04-30T12:07:42Z</time></trkpt><trkpt lat="43.1221876925033" lon="12.176360460288949"><ele>386.4</ele><time>2026-04-30T12:07:44Z</time></trkpt><trkpt lat="43.122079930174856" lon="12.17635985047317"><ele>384.20000000000005</ele><time>2026-04-30T12:07:46Z</time></trkpt><trkpt lat="43.12201824906821" lon="12.176379979335104"><ele>382.0</ele><time>2026-04-30T12:07:47Z</time></trkpt><trkpt lat="43.121902699224705" lon="12.17637166552881"><ele>382.0</ele><time>2026-04-30T12:07:49Z</time></trkpt><trkpt lat="43.12178782494483" lon="12.176333058294091"><ele>382.0</ele><time>2026-04-30T12:07:51Z</time></trkpt><trkpt lat="43.121695873743256" lon="12.176257084886114"><ele>382.0</ele><time>2026-04-30T12:07:53Z</time></trkpt><trkpt lat="43.121621106286184" lon="12.176179166016261"><ele>382.0</ele><time>2026-04-30T12:07:55Z</time></trkpt><trkpt lat="43.12153872045706" lon="12.17614327960056"><ele>382.0</ele><time>2026-04-30T12:07:57Z</time></trkpt><trkpt lat="43.12145612074917" lon="12.176097639721002"><ele>379.20000000000005</ele><time>2026-04-30T12:07:59Z</time></trkpt><trkpt lat="43.121394389291176" lon="12.176030677924455"><ele>376.4</ele><time>2026-04-30T12:08:01Z</time></trkpt><trkpt lat="43.12129695153866" lon="12.17599870201845"><ele>373.6</ele><time>2026-04-30T12:08:03Z</time></trkpt><trkpt lat="43.12120969383956" lon="12.175952494236906"><ele>370.79999999999995</ele><time>2026-04-30T12:08:05Z</time></trkpt><trkpt lat="43.12110754798421" lon="12.17593133904595"><ele>368.0</ele><time>2026-04-30T12:08:07Z</time></trkpt><trkpt lat="43.12100752603732" lon="12.175898268452986"><ele>368.0</ele><time>2026-04-30T12:08:09Z</time></trkpt><trkpt lat="43.12091627816208" lon="12.175873369588182"><ele>368.0</ele><time>2026-04-30T12:08:11Z</time></trkpt><trkpt lat="43.12083740439762" lon="12.17585571181607"><ele>368.0</ele><time>2026-04-30T12:08:12.999Z</time></trkpt><trkpt lat="43.120758026709446" lon="12.17582283392657"><ele>368.0</ele><time>2026-04-30T12:08:14.999Z</time></trkpt><trkpt lat="43.120665612579266" lon="12.175775665928326"><ele>368.0</ele><time>2026-04-30T12:08:16.999Z</time></trkpt><trkpt lat="43.120577242126295" lon="12.175746808115246"><ele>368.0</ele><time>2026-04-30T12:08:18.999Z</time></trkpt><trkpt lat="43.120482029607956" lon="12.175725992704535"><ele>365.33333333333337</ele><time>2026-04-30T12:08:20.999Z</time></trkpt><trkpt lat="43.12038814006282" lon="12.17569247150263"><ele>362.6666666666667</ele><time>2026-04-30T12:08:22.999Z</time></trkpt><trkpt lat="43.12031008117183" lon="12.175676669400637"><ele>360.0</ele><time>2026-04-30T12:08:24.999Z</time></trkpt><trkpt lat="43.12023997052791" lon="12.175633236936388"><ele>357.3333333333333</ele><time>2026-04-30T12:08:27.999Z</time></trkpt><trkpt lat="43.120168818750315" lon="12.175626705640159"><ele>354.66666666666663</ele><time>2026-04-30T12:08:29.999Z</time></trkpt><trkpt lat="43.12009224147074" lon="12.175601166652692"><ele>352.0</ele><time>2026-04-30T12:08:31.999Z</time></trkpt><trkpt lat="43.12002084641244" lon="12.175567731730219"><ele>350.6</ele><time>2026-04-30T12:08:33.999Z</time></trkpt><trkpt lat="43.11993373570653" lon="12.17555938460646"><ele>349.20000000000005</ele><time>2026-04-30T12:08:35.999Z</time></trkpt><trkpt lat="43.119856175903564" lon="12.175559440667195"><ele>347.8</ele><time>2026-04-30T12:08:37.999Z</time></trkpt><trkpt lat="43.119777970164314" lon="12.175564369787253"><ele>346.4</ele><time>2026-04-30T12:08:39.999Z</time></trkpt><trkpt lat="43.11967689552825" lon="12.175542963145134"><ele>345.0</ele><time>2026-04-30T12:08:41.999Z</time></trkpt><trkpt lat="43.11957341078957" lon="12.175509677978019"><ele>343.0</ele><time>2026-04-30T12:08:43.999Z</time></trkpt><trkpt lat="43.11945887388744" lon="12.175478285760551"><ele>341.0</ele><time>2026-04-30T12:08:45.999Z</time></trkpt><trkpt lat="43.11934967623859" lon="12.17545179085076"><ele>339.0</ele><time>2026-04-30T12:08:47.999Z</time></trkpt><trkpt lat="43.11924377790593" lon="12.175421719709668"><ele>337.0</ele><time>2026-04-30T12:08:49.999Z</time></trkpt><trkpt lat="43.1190740393493" lon="12.175610055764801"><ele>334.40000000000003</ele><time>2026-04-30T12:08:51.999Z</time></trkpt><trkpt lat="43.11897992981233" lon="12.175535303896623"><ele>331.8</ele><time>2026-04-30T12:08:53.999Z</time></trkpt><trkpt lat="43.11889740841537" lon="12.175463287377523"><ele>329.2</ele><time>2026-04-30T12:08:55.999Z</time></trkpt><trkpt lat="43.11882665227557" lon="12.175400993374002"><ele>326.6</ele><time>2026-04-30T12:08:57.999Z</time></trkpt><trkpt lat="43.11876060599284" lon="12.175342845907917"><ele>324.0</ele><time>2026-04-30T12:08:59.999Z</time></trkpt><trkpt lat="43.1186849574422" lon="12.175276247664486"><ele>324.0</ele><time>2026-04-30T12:09:01.999Z</time></trkpt><trkpt lat="43.118606616113496" lon="12.17520727575478"><ele>324.0</ele><time>2026-04-30T12:09:03.999Z</time></trkpt><trkpt lat="43.11854314586595" lon="12.17515139621563"><ele>324.0</ele><time>2026-04-30T12:09:05.999Z</time></trkpt><trkpt lat="43.11856129175576" lon="12.174559372820479"><ele>321.25</ele><time>2026-04-30T12:09:10.999Z</time></trkpt><trkpt lat="43.118647367148206" lon="12.17450466346741"><ele>318.5</ele><time>2026-04-30T12:09:12.999Z</time></trkpt><trkpt lat="43.1187820448092" lon="12.174778043577714"><ele>315.75</ele><time>2026-04-30T12:09:13.999Z</time></trkpt><trkpt lat="43.1188459778959" lon="12.17472154696049"><ele>313.0</ele><time>2026-04-30T12:09:15.999Z</time></trkpt><trkpt lat="43.11888632032661" lon="12.174613880675436"><ele>313.0</ele><time>2026-04-30T12:09:17.999Z</time></trkpt><trkpt lat="43.11893998456893" lon="12.174505607027093"><ele>313.0</ele><time>2026-04-30T12:09:19.999Z</time></trkpt><trkpt lat="43.11898124750297" lon="12.174406809536219"><ele>313.0</ele><time>2026-04-30T12:09:21.999Z</time></trkpt><trkpt lat="43.11900989953217" lon="12.174314343422777"><ele>313.0</ele><time>2026-04-30T12:09:23.999Z</time></trkpt><trkpt lat="43.11902625878662" lon="12.174218224903576"><ele>313.0</ele><time>2026-04-30T12:09:26.998Z</time></trkpt><trkpt lat="43.118978588217374" lon="12.174139559936783"><ele>313.0</ele><time>2026-04-30T12:09:28.998Z</time></trkpt><trkpt lat="43.118893640805446" lon="12.174057193593338"><ele>313.0</ele><time>2026-04-30T12:09:31.998Z</time></trkpt><trkpt lat="43.118828934597474" lon="12.17405252609067"><ele>313.0</ele><time>2026-04-30T12:09:32.998Z</time></trkpt><trkpt lat="43.11876217301675" lon="12.174048524957122"><ele>313.0</ele><time>2026-04-30T12:09:33.998Z</time></trkpt><trkpt lat="43.11865231862907" lon="12.173963851653763"><ele>313.0</ele><time>2026-04-30T12:09:35.998Z</time></trkpt><trkpt lat="43.11859136643503" lon="12.173935526641053"><ele>313.0</ele><time>2026-04-30T12:09:36.998Z</time></trkpt><trkpt lat="43.118527809883425" lon="12.173905991415158"><ele>313.0</ele><time>2026-04-30T12:09:37.998Z</time></trkpt><trkpt lat="43.11846597742134" lon="12.173877257382753"><ele>310.57142857142856</ele><time>2026-04-30T12:09:38.998Z</time></trkpt><trkpt lat="43.118404170973534" lon="12.173848026026242"><ele>308.14285714285717</ele><time>2026-04-30T12:09:39.998Z</time></trkpt><trkpt lat="43.11833844648762" lon="12.173829847465043"><ele>305.7142857142857</ele><time>2026-04-30T12:09:40.998Z</time></trkpt><trkpt lat="43.11827813802099" lon="12.173787764078337"><ele>303.2857142857143</ele><time>2026-04-30T12:09:41.998Z</time></trkpt><trkpt lat="43.11821424370015" lon="12.173753009420118"><ele>300.85714285714283</ele><time>2026-04-30T12:09:42.998Z</time></trkpt><trkpt lat="43.11813881798293" lon="12.173719554442213"><ele>298.42857142857144</ele><time>2026-04-30T12:09:43.998Z</time></trkpt><trkpt lat="43.11806564648108" lon="12.173688375259681"><ele>296.0</ele><time>2026-04-30T12:09:44.998Z</time></trkpt><trkpt lat="43.11799523909332" lon="12.173663801107175"><ele>295.8571428571429</ele><time>2026-04-30T12:09:46Z</time></trkpt><trkpt lat="43.11793352039802" lon="12.173615910959777"><ele>295.7142857142857</ele><time>2026-04-30T12:09:47Z</time></trkpt><trkpt lat="43.117869775855034" lon="12.173584254883272"><ele>295.57142857142856</ele><time>2026-04-30T12:09:48Z</time></trkpt><trkpt lat="43.1178010512563" lon="12.17355058576427"><ele>295.42857142857144</ele><time>2026-04-30T12:09:49Z</time></trkpt><trkpt lat="43.117737077360786" lon="12.173520567104418"><ele>295.2857142857143</ele><time>2026-04-30T12:09:50Z</time></trkpt><trkpt lat="43.11767488978332" lon="12.173491370162392"><ele>295.14285714285717</ele><time>2026-04-30T12:09:51Z</time></trkpt><trkpt lat="43.117594241479935" lon="12.173456911906152"><ele>295.0</ele><time>2026-04-30T12:09:52Z</time></trkpt><trkpt lat="43.11746861601989" lon="12.173426535646442"><ele>294.0</ele><time>2026-04-30T12:09:53Z</time></trkpt><trkpt lat="43.11735284760316" lon="12.173353772261828"><ele>293.0</ele><time>2026-04-30T12:09:54Z</time></trkpt><trkpt lat="43.117241899728725" lon="12.173328889959755"><ele>292.0</ele><time>2026-04-30T12:09:55Z</time></trkpt><trkpt lat="43.11714193642055" lon="12.173283962102865"><ele>291.0</ele><time>2026-04-30T12:09:56Z</time></trkpt><trkpt lat="43.117059259710196" lon="12.173219429664424"><ele>290.0</ele><time>2026-04-30T12:09:57Z</time></trkpt><trkpt lat="43.116973354321935" lon="12.173175649057857"><ele>287.4</ele><time>2026-04-30T12:09:58Z</time></trkpt><trkpt lat="43.11688356580807" lon="12.173129848376798"><ele>284.8</ele><time>2026-04-30T12:10:00Z</time></trkpt><trkpt lat="43.11695147867132" lon="12.172987300149117"><ele>282.2</ele><time>2026-04-30T12:10:05Z</time></trkpt><trkpt lat="43.116989565315336" lon="12.17290311695278"><ele>279.6</ele><time>2026-04-30T12:10:06Z</time></trkpt><trkpt lat="43.11704397285988" lon="12.172814529025846"><ele>277.0</ele><time>2026-04-30T12:10:07Z</time></trkpt><trkpt lat="43.11712026511125" lon="12.172748824566487"><ele>277.0</ele><time>2026-04-30T12:10:08Z</time></trkpt><trkpt lat="43.117192621032935" lon="12.172670601743773"><ele>277.0</ele><time>2026-04-30T12:10:09Z</time></trkpt><trkpt lat="43.117249774810915" lon="12.172584730339176"><ele>277.0</ele><time>2026-04-30T12:10:10Z</time></trkpt><trkpt lat="43.117292826042735" lon="12.17249833922279"><ele>277.0</ele><time>2026-04-30T12:10:11Z</time></trkpt><trkpt lat="43.11731660541138" lon="12.172394963248566"><ele>277.0</ele><time>2026-04-30T12:10:12Z</time></trkpt><trkpt lat="43.11734741237552" lon="12.172298554233434"><ele>277.0</ele><time>2026-04-30T12:10:13Z</time></trkpt><trkpt lat="43.117394647533935" lon="12.172211259891252"><ele>276.3333333333333</ele><time>2026-04-30T12:10:14Z</time></trkpt><trkpt lat="43.11743163867155" lon="12.172118078916744"><ele>275.66666666666663</ele><time>2026-04-30T12:10:15Z</time></trkpt><trkpt lat="43.117459408981894" lon="12.1720167870788"><ele>275.0</ele><time>2026-04-30T12:10:16Z</time></trkpt><trkpt lat="43.1174788448972" lon="12.171916809311535"><ele>274.3333333333333</ele><time>2026-04-30T12:10:17Z</time></trkpt><trkpt lat="43.11749919947399" lon="12.171816226427746"><ele>273.6666666666667</ele><time>2026-04-30T12:10:18Z</time></trkpt><trkpt lat="43.11753679341342" lon="12.171728104546315"><ele>273.0</ele><time>2026-04-30T12:10:19Z</time></trkpt><trkpt lat="43.1175804501678" lon="12.171645337282936"><ele>273.0</ele><time>2026-04-30T12:10:20Z</time></trkpt><trkpt lat="43.117599830708734" lon="12.171549114860023"><ele>273.0</ele><time>2026-04-30T12:10:21Z</time></trkpt><trkpt lat="43.11759789180374" lon="12.171444246440043"><ele>273.0</ele><time>2026-04-30T12:10:21.999Z</time></trkpt><trkpt lat="43.117592070954906" lon="12.171348152245889"><ele>273.0</ele><time>2026-04-30T12:10:22.999Z</time></trkpt><trkpt lat="43.11757566597979" lon="12.171263276001682"><ele>273.0</ele><time>2026-04-30T12:10:23.999Z</time></trkpt><trkpt lat="43.11753017270006" lon="12.17110949779171"><ele>273.0</ele><time>2026-04-30T12:10:25.999Z</time></trkpt><trkpt lat="43.11753756928475" lon="12.171022520923014"><ele>272.0</ele><time>2026-04-30T12:10:26.999Z</time></trkpt><trkpt lat="43.11757616413367" lon="12.170889810675218"><ele>271.0</ele><time>2026-04-30T12:10:28.999Z</time></trkpt><trkpt lat="43.11771706031646" lon="12.17087230541502"><ele>270.0</ele><time>2026-04-30T12:10:29.999Z</time></trkpt><trkpt lat="43.117739265187375" lon="12.170776656406217"><ele>269.0</ele><time>2026-04-30T12:10:31.999Z</time></trkpt><trkpt lat="43.11777306158738" lon="12.170695714203376"><ele>268.0</ele><time>2026-04-30T12:10:32.999Z</time></trkpt><trkpt lat="43.11778784219878" lon="12.170556463542374"><ele>267.8</ele><time>2026-04-30T12:10:33.999Z</time></trkpt><trkpt lat="43.1177942460377" lon="12.170430003908177"><ele>267.6</ele><time>2026-04-30T12:10:34.999Z</time></trkpt><trkpt lat="43.11781991503585" lon="12.170320472898007"><ele>267.4</ele><time>2026-04-30T12:10:35.999Z</time></trkpt><trkpt lat="43.117837263198545" lon="12.170191723681171"><ele>267.2</ele><time>2026-04-30T12:10:36.999Z</time></trkpt><trkpt lat="43.11785250247644" lon="12.170055976022116"><ele>267.0</ele><time>2026-04-30T12:10:37.999Z</time></trkpt><trkpt lat="43.11786903295567" lon="12.169915080015983"><ele>266.6666666666667</ele><time>2026-04-30T12:10:38.999Z</time></trkpt><trkpt lat="43.1178833471564" lon="12.169793074413992"><ele>266.3333333333333</ele><time>2026-04-30T12:10:39.999Z</time></trkpt><trkpt lat="43.11789613574258" lon="12.16968407208589"><ele>266.0</ele><time>2026-04-30T12:10:40.999Z</time></trkpt><trkpt lat="43.117908960671684" lon="12.16958579030792"><ele>265.66666666666663</ele><time>2026-04-30T12:10:41.999Z</time></trkpt><trkpt lat="43.11791167339919" lon="12.169452353987102"><ele>265.3333333333333</ele><time>2026-04-30T12:10:43.999Z</time></trkpt><trkpt lat="43.117902307364695" lon="12.16934752488533"><ele>265.0</ele><time>2026-04-30T12:10:46.999Z</time></trkpt><trkpt lat="43.117827132920915" lon="12.169241233914276"><ele>265.0</ele><time>2026-04-30T12:10:48.999Z</time></trkpt><trkpt lat="43.117702299604574" lon="12.16936230379219"><ele>265.0</ele><time>2026-04-30T12:10:49.999Z</time></trkpt><trkpt lat="43.11762720399453" lon="12.169422600889831"><ele>265.0</ele><time>2026-04-30T12:10:50.999Z</time></trkpt><trkpt lat="43.1175565142449" lon="12.169444633451759"><ele>265.0</ele><time>2026-04-30T12:10:51.999Z</time></trkpt><trkpt lat="43.117494204524725" lon="12.169480437494224"><ele>265.0</ele><time>2026-04-30T12:10:52.999Z</time></trkpt><trkpt lat="43.11742894693119" lon="12.169527028620031"><ele>263.5</ele><time>2026-04-30T12:10:53.999Z</time></trkpt><trkpt lat="43.11736491720501" lon="12.169573048082588"><ele>262.0</ele><time>2026-04-30T12:10:54.999Z</time></trkpt><trkpt lat="43.1175020584473" lon="12.168951967504968"><ele>261.66666666666663</ele><time>2026-04-30T12:10:58.999Z</time></trkpt><trkpt lat="43.11725620584544" lon="12.169272846668312"><ele>261.3333333333333</ele><time>2026-04-30T12:11:00.999Z</time></trkpt><trkpt lat="43.11716995805852" lon="12.169204430178661"><ele>261.0</ele><time>2026-04-30T12:11:02.999Z</time></trkpt><trkpt lat="43.116987199341025" lon="12.169405307816504"><ele>261.0</ele><time>2026-04-30T12:11:04.999Z</time></trkpt><trkpt lat="43.11706731452989" lon="12.169265016798546"><ele>261.0</ele><time>2026-04-30T12:11:05.999Z</time></trkpt><trkpt lat="43.11709910351194" lon="12.169349069055833"><ele>261.0</ele><time>2026-04-30T12:11:07.999Z</time></trkpt><trkpt lat="43.11702782068318" lon="12.169234944741614"><ele>261.0</ele><time>2026-04-30T12:20:59.999Z</time></trkpt><trkpt lat="43.11698354929622" lon="12.169311367829183"><ele>261.0</ele><time>2026-04-30T12:21:07.999Z</time></trkpt><trkpt lat="43.117015596405" lon="12.16944514697292"><ele>261.0</ele><time>2026-04-30T12:21:18.999Z</time></trkpt><trkpt lat="43.1170909425158" lon="12.169505053967411"><ele>261.0</ele><time>2026-04-30T12:21:27.999Z</time></trkpt><trkpt lat="43.11715524067212" lon="12.169493259966305"><ele>261.0</ele><time>2026-04-30T12:21:31.999Z</time></trkpt><trkpt lat="43.11714636249648" lon="12.16938440337091"><ele>261.0</ele><time>2026-04-30T12:22:02.998Z</time></trkpt></trkseg></trk></gpx>